<?xml version="1.0" encoding="UTF-8" standalone="no" ?>
<gpx xmlns="http://www.topografix.com/GPX/1/1" xmlns:xsi="http://www.w3.org/2001/XMLSchema-instance" xsi:schemaLocation="http://www.topografix.com/GPX/1/1 http://www.topografix.com/GPX/1/1/gpx.xsd" version="1.1" creator="VisuGPX - https://www.visugpx.com">
  <metadata>
    <name>TIGERY en bordure de la forêt de Sénart</name>
    <desc><![CDATA[Petite randonnée sans difficulté. 2 heures 30 de balade le dimanche après midi.]]></desc>
  </metadata>
  <trk>
    <name><![CDATA[5 févr. 2015 13:56:04]]></name>
    <cmt><![CDATA[5 févr. 2015 13:56:04]]></cmt>
    <trkseg>
      <trkpt lat="48.64342" lon="2.50574">
        <ele>71</ele>
        <time>2015-02-05T12:56:04Z</time>
      </trkpt>
      <trkpt lat="48.64346" lon="2.50574">
        <ele>71</ele>
        <time>2015-02-05T12:56:11Z</time>
      </trkpt>
      <trkpt lat="48.6435" lon="2.50566">
        <ele>70</ele>
        <time>2015-02-05T12:56:23Z</time>
      </trkpt>
      <trkpt lat="48.64355" lon="2.50568">
        <ele>70</ele>
        <time>2015-02-05T12:56:28Z</time>
      </trkpt>
      <trkpt lat="48.64358" lon="2.50571">
        <ele>70</ele>
        <time>2015-02-05T12:56:36Z</time>
      </trkpt>
      <trkpt lat="48.64363" lon="2.50574">
        <ele>69</ele>
        <time>2015-02-05T12:56:47Z</time>
      </trkpt>
      <trkpt lat="48.64368" lon="2.50575">
        <ele>67</ele>
        <time>2015-02-05T12:56:51Z</time>
      </trkpt>
      <trkpt lat="48.64374" lon="2.50576">
        <ele>67</ele>
        <time>2015-02-05T12:56:55Z</time>
      </trkpt>
      <trkpt lat="48.64379" lon="2.50577">
        <ele>68</ele>
        <time>2015-02-05T12:56:59Z</time>
      </trkpt>
      <trkpt lat="48.64401" lon="2.50583">
        <ele>65</ele>
        <time>2015-02-05T12:57:17Z</time>
      </trkpt>
      <trkpt lat="48.64406" lon="2.50583">
        <ele>66</ele>
        <time>2015-02-05T12:57:22Z</time>
      </trkpt>
      <trkpt lat="48.64411" lon="2.50584">
        <ele>66</ele>
        <time>2015-02-05T12:57:27Z</time>
      </trkpt>
      <trkpt lat="48.64451" lon="2.50589">
        <ele>59</ele>
        <time>2015-02-05T12:57:58Z</time>
      </trkpt>
      <trkpt lat="48.64456" lon="2.50591">
        <ele>58</ele>
        <time>2015-02-05T12:58:00Z</time>
      </trkpt>
      <trkpt lat="48.64462" lon="2.50594">
        <ele>58</ele>
        <time>2015-02-05T12:58:04Z</time>
      </trkpt>
      <trkpt lat="48.64484" lon="2.50597">
        <ele>62</ele>
        <time>2015-02-05T12:58:19Z</time>
      </trkpt>
      <trkpt lat="48.64495" lon="2.50599">
        <ele>61</ele>
        <time>2015-02-05T12:58:27Z</time>
      </trkpt>
      <trkpt lat="48.64504" lon="2.506">
        <ele>62</ele>
        <time>2015-02-05T12:58:33Z</time>
      </trkpt>
      <trkpt lat="48.64509" lon="2.50604">
        <ele>64</ele>
        <time>2015-02-05T12:58:39Z</time>
      </trkpt>
      <trkpt lat="48.64518" lon="2.50609">
        <ele>64</ele>
        <time>2015-02-05T12:58:46Z</time>
      </trkpt>
      <trkpt lat="48.64523" lon="2.50614">
        <ele>62</ele>
        <time>2015-02-05T12:58:50Z</time>
      </trkpt>
      <trkpt lat="48.64535" lon="2.50617">
        <ele>60</ele>
        <time>2015-02-05T12:58:59Z</time>
      </trkpt>
      <trkpt lat="48.64537" lon="2.50623">
        <ele>60</ele>
        <time>2015-02-05T12:59:06Z</time>
      </trkpt>
      <trkpt lat="48.64543" lon="2.50636">
        <ele>59</ele>
        <time>2015-02-05T12:59:15Z</time>
      </trkpt>
      <trkpt lat="48.64548" lon="2.50639">
        <ele>59</ele>
        <time>2015-02-05T12:59:18Z</time>
      </trkpt>
      <trkpt lat="48.64573" lon="2.5064">
        <ele>50</ele>
        <time>2015-02-05T12:59:42Z</time>
      </trkpt>
      <trkpt lat="48.64583" lon="2.5064">
        <ele>51</ele>
        <time>2015-02-05T12:59:49Z</time>
      </trkpt>
      <trkpt lat="48.64604" lon="2.5063">
        <ele>56</ele>
        <time>2015-02-05T13:00:07Z</time>
      </trkpt>
      <trkpt lat="48.64607" lon="2.50618">
        <ele>57</ele>
        <time>2015-02-05T13:00:13Z</time>
      </trkpt>
      <trkpt lat="48.64605" lon="2.50597">
        <ele>58</ele>
        <time>2015-02-05T13:00:23Z</time>
      </trkpt>
      <trkpt lat="48.64602" lon="2.50583">
        <ele>59</ele>
        <time>2015-02-05T13:00:31Z</time>
      </trkpt>
      <trkpt lat="48.64602" lon="2.50568">
        <ele>61</ele>
        <time>2015-02-05T13:00:39Z</time>
      </trkpt>
      <trkpt lat="48.64603" lon="2.50561">
        <ele>61</ele>
        <time>2015-02-05T13:00:44Z</time>
      </trkpt>
      <trkpt lat="48.64604" lon="2.50554">
        <ele>61</ele>
        <time>2015-02-05T13:00:49Z</time>
      </trkpt>
      <trkpt lat="48.64605" lon="2.50546">
        <ele>61</ele>
        <time>2015-02-05T13:00:53Z</time>
      </trkpt>
      <trkpt lat="48.64608" lon="2.5054">
        <ele>61</ele>
        <time>2015-02-05T13:00:58Z</time>
      </trkpt>
      <trkpt lat="48.64621" lon="2.50526">
        <ele>54</ele>
        <time>2015-02-05T13:01:13Z</time>
      </trkpt>
      <trkpt lat="48.64624" lon="2.50522">
        <ele>54</ele>
        <time>2015-02-05T13:01:17Z</time>
      </trkpt>
      <trkpt lat="48.64633" lon="2.50524">
        <ele>55</ele>
        <time>2015-02-05T13:01:26Z</time>
      </trkpt>
      <trkpt lat="48.64638" lon="2.50528">
        <ele>56</ele>
        <time>2015-02-05T13:01:28Z</time>
      </trkpt>
      <trkpt lat="48.64646" lon="2.50537">
        <ele>58</ele>
        <time>2015-02-05T13:01:35Z</time>
      </trkpt>
      <trkpt lat="48.64649" lon="2.50543">
        <ele>57</ele>
        <time>2015-02-05T13:01:39Z</time>
      </trkpt>
      <trkpt lat="48.64652" lon="2.50548">
        <ele>57</ele>
        <time>2015-02-05T13:01:42Z</time>
      </trkpt>
      <trkpt lat="48.64655" lon="2.50554">
        <ele>57</ele>
        <time>2015-02-05T13:01:46Z</time>
      </trkpt>
      <trkpt lat="48.64685" lon="2.5057">
        <ele>50</ele>
        <time>2015-02-05T13:02:26Z</time>
      </trkpt>
      <trkpt lat="48.64713" lon="2.50599">
        <ele>53</ele>
        <time>2015-02-05T13:02:46Z</time>
      </trkpt>
      <trkpt lat="48.64731" lon="2.50611">
        <ele>63</ele>
        <time>2015-02-05T13:02:57Z</time>
      </trkpt>
      <trkpt lat="48.64734" lon="2.50625">
        <ele>62</ele>
        <time>2015-02-05T13:03:02Z</time>
      </trkpt>
      <trkpt lat="48.64735" lon="2.50633">
        <ele>61</ele>
        <time>2015-02-05T13:03:07Z</time>
      </trkpt>
      <trkpt lat="48.64738" lon="2.50647">
        <ele>60</ele>
        <time>2015-02-05T13:03:17Z</time>
      </trkpt>
      <trkpt lat="48.64739" lon="2.50658">
        <ele>59</ele>
        <time>2015-02-05T13:03:23Z</time>
      </trkpt>
      <trkpt lat="48.6474" lon="2.50665">
        <ele>60</ele>
        <time>2015-02-05T13:03:27Z</time>
      </trkpt>
      <trkpt lat="48.64741" lon="2.5069">
        <ele>57</ele>
        <time>2015-02-05T13:03:40Z</time>
      </trkpt>
      <trkpt lat="48.64742" lon="2.50698">
        <ele>57</ele>
        <time>2015-02-05T13:03:43Z</time>
      </trkpt>
      <trkpt lat="48.64747" lon="2.50714">
        <ele>58</ele>
        <time>2015-02-05T13:03:50Z</time>
      </trkpt>
      <trkpt lat="48.6475" lon="2.50729">
        <ele>59</ele>
        <time>2015-02-05T13:03:58Z</time>
      </trkpt>
      <trkpt lat="48.64753" lon="2.50793">
        <ele>62</ele>
        <time>2015-02-05T13:04:30Z</time>
      </trkpt>
      <trkpt lat="48.64754" lon="2.50801">
        <ele>62</ele>
        <time>2015-02-05T13:04:35Z</time>
      </trkpt>
      <trkpt lat="48.64753" lon="2.50808">
        <ele>62</ele>
        <time>2015-02-05T13:04:42Z</time>
      </trkpt>
      <trkpt lat="48.64754" lon="2.50815">
        <ele>63</ele>
        <time>2015-02-05T13:04:45Z</time>
      </trkpt>
      <trkpt lat="48.64754" lon="2.50822">
        <ele>64</ele>
        <time>2015-02-05T13:04:48Z</time>
      </trkpt>
      <trkpt lat="48.64755" lon="2.50843">
        <ele>64</ele>
        <time>2015-02-05T13:04:59Z</time>
      </trkpt>
      <trkpt lat="48.64755" lon="2.50851">
        <ele>64</ele>
        <time>2015-02-05T13:05:02Z</time>
      </trkpt>
      <trkpt lat="48.64755" lon="2.50858">
        <ele>64</ele>
        <time>2015-02-05T13:05:05Z</time>
      </trkpt>
      <trkpt lat="48.64755" lon="2.50866">
        <ele>64</ele>
        <time>2015-02-05T13:05:09Z</time>
      </trkpt>
      <trkpt lat="48.64753" lon="2.50875">
        <ele>64</ele>
        <time>2015-02-05T13:05:13Z</time>
      </trkpt>
      <trkpt lat="48.64751" lon="2.50881">
        <ele>65</ele>
        <time>2015-02-05T13:05:17Z</time>
      </trkpt>
      <trkpt lat="48.64747" lon="2.50884">
        <ele>66</ele>
        <time>2015-02-05T13:05:21Z</time>
      </trkpt>
      <trkpt lat="48.64741" lon="2.50879">
        <ele>66</ele>
        <time>2015-02-05T13:05:30Z</time>
      </trkpt>
      <trkpt lat="48.64735" lon="2.50882">
        <ele>65</ele>
        <time>2015-02-05T13:05:33Z</time>
      </trkpt>
      <trkpt lat="48.64733" lon="2.50892">
        <ele>64</ele>
        <time>2015-02-05T13:05:41Z</time>
      </trkpt>
      <trkpt lat="48.64733" lon="2.50906">
        <ele>63</ele>
        <time>2015-02-05T13:05:46Z</time>
      </trkpt>
      <trkpt lat="48.64733" lon="2.5093">
        <ele>62</ele>
        <time>2015-02-05T13:06:02Z</time>
      </trkpt>
      <trkpt lat="48.64741" lon="2.50977">
        <ele>54</ele>
        <time>2015-02-05T13:06:25Z</time>
      </trkpt>
      <trkpt lat="48.64766" lon="2.51039">
        <ele>67</ele>
        <time>2015-02-05T13:06:57Z</time>
      </trkpt>
      <trkpt lat="48.64767" lon="2.51046">
        <ele>67</ele>
        <time>2015-02-05T13:07:01Z</time>
      </trkpt>
      <trkpt lat="48.6477" lon="2.51053">
        <ele>68</ele>
        <time>2015-02-05T13:07:06Z</time>
      </trkpt>
      <trkpt lat="48.64774" lon="2.51058">
        <ele>68</ele>
        <time>2015-02-05T13:07:12Z</time>
      </trkpt>
      <trkpt lat="48.64778" lon="2.51071">
        <ele>64</ele>
        <time>2015-02-05T13:07:22Z</time>
      </trkpt>
      <trkpt lat="48.64785" lon="2.51086">
        <ele>63</ele>
        <time>2015-02-05T13:07:32Z</time>
      </trkpt>
      <trkpt lat="48.64793" lon="2.51122">
        <ele>64</ele>
        <time>2015-02-05T13:07:53Z</time>
      </trkpt>
      <trkpt lat="48.64796" lon="2.51133">
        <ele>64</ele>
        <time>2015-02-05T13:07:57Z</time>
      </trkpt>
      <trkpt lat="48.648" lon="2.51141">
        <ele>63</ele>
        <time>2015-02-05T13:08:16Z</time>
      </trkpt>
      <trkpt lat="48.64809" lon="2.51148">
        <ele>66</ele>
        <time>2015-02-05T13:08:32Z</time>
      </trkpt>
      <trkpt lat="48.64812" lon="2.51155">
        <ele>65</ele>
        <time>2015-02-05T13:08:36Z</time>
      </trkpt>
      <trkpt lat="48.64812" lon="2.51164">
        <ele>65</ele>
        <time>2015-02-05T13:08:41Z</time>
      </trkpt>
      <trkpt lat="48.6481" lon="2.51173">
        <ele>63</ele>
        <time>2015-02-05T13:08:46Z</time>
      </trkpt>
      <trkpt lat="48.64807" lon="2.51194">
        <ele>63</ele>
        <time>2015-02-05T13:09:00Z</time>
      </trkpt>
      <trkpt lat="48.64801" lon="2.51208">
        <ele>61</ele>
        <time>2015-02-05T13:09:09Z</time>
      </trkpt>
      <trkpt lat="48.64797" lon="2.51213">
        <ele>61</ele>
        <time>2015-02-05T13:09:13Z</time>
      </trkpt>
      <trkpt lat="48.64784" lon="2.51232">
        <ele>65</ele>
        <time>2015-02-05T13:09:28Z</time>
      </trkpt>
      <trkpt lat="48.64782" lon="2.51245">
        <ele>66</ele>
        <time>2015-02-05T13:09:46Z</time>
      </trkpt>
      <trkpt lat="48.64781" lon="2.51264">
        <ele>62</ele>
        <time>2015-02-05T13:09:59Z</time>
      </trkpt>
      <trkpt lat="48.64784" lon="2.51292">
        <ele>60</ele>
        <time>2015-02-05T13:10:17Z</time>
      </trkpt>
      <trkpt lat="48.64789" lon="2.51304">
        <ele>59</ele>
        <time>2015-02-05T13:10:25Z</time>
      </trkpt>
      <trkpt lat="48.64792" lon="2.51329">
        <ele>58</ele>
        <time>2015-02-05T13:10:39Z</time>
      </trkpt>
      <trkpt lat="48.64777" lon="2.51402">
        <ele>74</ele>
        <time>2015-02-05T13:11:14Z</time>
      </trkpt>
      <trkpt lat="48.64757" lon="2.51434">
        <ele>67</ele>
        <time>2015-02-05T13:11:43Z</time>
      </trkpt>
      <trkpt lat="48.64754" lon="2.5144">
        <ele>69</ele>
        <time>2015-02-05T13:11:46Z</time>
      </trkpt>
      <trkpt lat="48.6475" lon="2.51448">
        <ele>69</ele>
        <time>2015-02-05T13:11:50Z</time>
      </trkpt>
      <trkpt lat="48.64746" lon="2.51456">
        <ele>68</ele>
        <time>2015-02-05T13:12:05Z</time>
      </trkpt>
      <trkpt lat="48.6475" lon="2.51462">
        <ele>69</ele>
        <time>2015-02-05T13:12:13Z</time>
      </trkpt>
      <trkpt lat="48.64757" lon="2.51474">
        <ele>68</ele>
        <time>2015-02-05T13:12:28Z</time>
      </trkpt>
      <trkpt lat="48.64768" lon="2.51497">
        <ele>63</ele>
        <time>2015-02-05T13:12:45Z</time>
      </trkpt>
      <trkpt lat="48.64786" lon="2.5153">
        <ele>71</ele>
        <time>2015-02-05T13:13:26Z</time>
      </trkpt>
      <trkpt lat="48.64793" lon="2.5155">
        <ele>80</ele>
        <time>2015-02-05T13:13:53Z</time>
      </trkpt>
      <trkpt lat="48.64803" lon="2.51573">
        <ele>83</ele>
        <time>2015-02-05T13:13:58Z</time>
      </trkpt>
      <trkpt lat="48.64813" lon="2.51592">
        <ele>82</ele>
        <time>2015-02-05T13:14:14Z</time>
      </trkpt>
      <trkpt lat="48.64822" lon="2.51608">
        <ele>83</ele>
        <time>2015-02-05T13:14:27Z</time>
      </trkpt>
      <trkpt lat="48.6483" lon="2.51624">
        <ele>88</ele>
        <time>2015-02-05T13:14:38Z</time>
      </trkpt>
      <trkpt lat="48.64833" lon="2.5163">
        <ele>88</ele>
        <time>2015-02-05T13:14:42Z</time>
      </trkpt>
      <trkpt lat="48.64838" lon="2.51632">
        <ele>89</ele>
        <time>2015-02-05T13:14:47Z</time>
      </trkpt>
      <trkpt lat="48.64841" lon="2.5164">
        <ele>88</ele>
        <time>2015-02-05T13:14:53Z</time>
      </trkpt>
      <trkpt lat="48.64844" lon="2.51648">
        <ele>86</ele>
        <time>2015-02-05T13:15:04Z</time>
      </trkpt>
      <trkpt lat="48.64851" lon="2.51658">
        <ele>85</ele>
        <time>2015-02-05T13:15:10Z</time>
      </trkpt>
      <trkpt lat="48.64869" lon="2.51688">
        <ele>91</ele>
        <time>2015-02-05T13:15:43Z</time>
      </trkpt>
      <trkpt lat="48.64874" lon="2.517">
        <ele>93</ele>
        <time>2015-02-05T13:15:50Z</time>
      </trkpt>
      <trkpt lat="48.64888" lon="2.51732">
        <ele>83</ele>
        <time>2015-02-05T13:16:11Z</time>
      </trkpt>
      <trkpt lat="48.64895" lon="2.51748">
        <ele>87</ele>
        <time>2015-02-05T13:16:21Z</time>
      </trkpt>
      <trkpt lat="48.64898" lon="2.51761">
        <ele>87</ele>
        <time>2015-02-05T13:16:31Z</time>
      </trkpt>
      <trkpt lat="48.64898" lon="2.51769">
        <ele>88</ele>
        <time>2015-02-05T13:16:43Z</time>
      </trkpt>
      <trkpt lat="48.64905" lon="2.5178">
        <ele>89</ele>
        <time>2015-02-05T13:16:49Z</time>
      </trkpt>
      <trkpt lat="48.64911" lon="2.51791">
        <ele>85</ele>
        <time>2015-02-05T13:16:59Z</time>
      </trkpt>
      <trkpt lat="48.6492" lon="2.51806">
        <ele>87</ele>
        <time>2015-02-05T13:17:06Z</time>
      </trkpt>
      <trkpt lat="48.64926" lon="2.5181">
        <ele>88</ele>
        <time>2015-02-05T13:17:07Z</time>
      </trkpt>
      <trkpt lat="48.64929" lon="2.51821">
        <ele>84</ele>
        <time>2015-02-05T13:18:30Z</time>
      </trkpt>
      <trkpt lat="48.64933" lon="2.51824">
        <ele>88</ele>
        <time>2015-02-05T13:18:54Z</time>
      </trkpt>
      <trkpt lat="48.6494" lon="2.51828">
        <ele>89</ele>
        <time>2015-02-05T13:19:11Z</time>
      </trkpt>
      <trkpt lat="48.64945" lon="2.51822">
        <ele>98</ele>
        <time>2015-02-05T13:19:29Z</time>
      </trkpt>
      <trkpt lat="48.64961" lon="2.51793">
        <ele>81</ele>
        <time>2015-02-05T13:19:53Z</time>
      </trkpt>
      <trkpt lat="48.64967" lon="2.51788">
        <ele>82</ele>
        <time>2015-02-05T13:19:59Z</time>
      </trkpt>
      <trkpt lat="48.64981" lon="2.5177">
        <ele>79</ele>
        <time>2015-02-05T13:20:17Z</time>
      </trkpt>
      <trkpt lat="48.64995" lon="2.51746">
        <ele>83</ele>
        <time>2015-02-05T13:20:35Z</time>
      </trkpt>
      <trkpt lat="48.65002" lon="2.51737">
        <ele>83</ele>
        <time>2015-02-05T13:20:47Z</time>
      </trkpt>
      <trkpt lat="48.65006" lon="2.51732">
        <ele>82</ele>
        <time>2015-02-05T13:20:52Z</time>
      </trkpt>
      <trkpt lat="48.6501" lon="2.51728">
        <ele>80</ele>
        <time>2015-02-05T13:20:58Z</time>
      </trkpt>
      <trkpt lat="48.65014" lon="2.51725">
        <ele>81</ele>
        <time>2015-02-05T13:21:02Z</time>
      </trkpt>
      <trkpt lat="48.65018" lon="2.51721">
        <ele>81</ele>
        <time>2015-02-05T13:21:09Z</time>
      </trkpt>
      <trkpt lat="48.65031" lon="2.51708">
        <ele>77</ele>
        <time>2015-02-05T13:21:28Z</time>
      </trkpt>
      <trkpt lat="48.65039" lon="2.51698">
        <ele>77</ele>
        <time>2015-02-05T13:21:34Z</time>
      </trkpt>
      <trkpt lat="48.65062" lon="2.51676">
        <ele>70</ele>
        <time>2015-02-05T13:22:07Z</time>
      </trkpt>
      <trkpt lat="48.65082" lon="2.51643">
        <ele>82</ele>
        <time>2015-02-05T13:22:38Z</time>
      </trkpt>
      <trkpt lat="48.65089" lon="2.51632">
        <ele>84</ele>
        <time>2015-02-05T13:22:46Z</time>
      </trkpt>
      <trkpt lat="48.65101" lon="2.5162">
        <ele>80</ele>
        <time>2015-02-05T13:22:58Z</time>
      </trkpt>
      <trkpt lat="48.6511" lon="2.51615">
        <ele>83</ele>
        <time>2015-02-05T13:23:09Z</time>
      </trkpt>
      <trkpt lat="48.65116" lon="2.51606">
        <ele>84</ele>
        <time>2015-02-05T13:23:16Z</time>
      </trkpt>
      <trkpt lat="48.65124" lon="2.51598">
        <ele>84</ele>
        <time>2015-02-05T13:23:26Z</time>
      </trkpt>
      <trkpt lat="48.65138" lon="2.51585">
        <ele>75</ele>
        <time>2015-02-05T13:23:38Z</time>
      </trkpt>
      <trkpt lat="48.65145" lon="2.51581">
        <ele>75</ele>
        <time>2015-02-05T13:23:46Z</time>
      </trkpt>
      <trkpt lat="48.65154" lon="2.51573">
        <ele>75</ele>
        <time>2015-02-05T13:23:55Z</time>
      </trkpt>
      <trkpt lat="48.65162" lon="2.51564">
        <ele>73</ele>
        <time>2015-02-05T13:24:02Z</time>
      </trkpt>
      <trkpt lat="48.65169" lon="2.51552">
        <ele>73</ele>
        <time>2015-02-05T13:24:14Z</time>
      </trkpt>
      <trkpt lat="48.65172" lon="2.51546">
        <ele>77</ele>
        <time>2015-02-05T13:24:22Z</time>
      </trkpt>
      <trkpt lat="48.65175" lon="2.51558">
        <ele>76</ele>
        <time>2015-02-05T13:24:59Z</time>
      </trkpt>
      <trkpt lat="48.65177" lon="2.51571">
        <ele>77</ele>
        <time>2015-02-05T13:25:06Z</time>
      </trkpt>
      <trkpt lat="48.65211" lon="2.5162">
        <ele>89</ele>
        <time>2015-02-05T13:25:44Z</time>
      </trkpt>
      <trkpt lat="48.65225" lon="2.51645">
        <ele>94</ele>
        <time>2015-02-05T13:25:56Z</time>
      </trkpt>
      <trkpt lat="48.65233" lon="2.51655">
        <ele>94</ele>
        <time>2015-02-05T13:26:01Z</time>
      </trkpt>
      <trkpt lat="48.65242" lon="2.51662">
        <ele>93</ele>
        <time>2015-02-05T13:26:08Z</time>
      </trkpt>
      <trkpt lat="48.65251" lon="2.51688">
        <ele>91</ele>
        <time>2015-02-05T13:26:25Z</time>
      </trkpt>
      <trkpt lat="48.65261" lon="2.51695">
        <ele>90</ele>
        <time>2015-02-05T13:26:33Z</time>
      </trkpt>
      <trkpt lat="48.65273" lon="2.5172">
        <ele>84</ele>
        <time>2015-02-05T13:26:48Z</time>
      </trkpt>
      <trkpt lat="48.65282" lon="2.51732">
        <ele>83</ele>
        <time>2015-02-05T13:26:58Z</time>
      </trkpt>
      <trkpt lat="48.65288" lon="2.5175">
        <ele>82</ele>
        <time>2015-02-05T13:27:10Z</time>
      </trkpt>
      <trkpt lat="48.65292" lon="2.51768">
        <ele>83</ele>
        <time>2015-02-05T13:27:25Z</time>
      </trkpt>
      <trkpt lat="48.65299" lon="2.51782">
        <ele>88</ele>
        <time>2015-02-05T13:27:36Z</time>
      </trkpt>
      <trkpt lat="48.65312" lon="2.51806">
        <ele>88</ele>
        <time>2015-02-05T13:27:45Z</time>
      </trkpt>
      <trkpt lat="48.65315" lon="2.51814">
        <ele>90</ele>
        <time>2015-02-05T13:27:50Z</time>
      </trkpt>
      <trkpt lat="48.65311" lon="2.51821">
        <ele>87</ele>
        <time>2015-02-05T13:27:55Z</time>
      </trkpt>
      <trkpt lat="48.65285" lon="2.51843">
        <ele>81</ele>
        <time>2015-02-05T13:28:10Z</time>
      </trkpt>
      <trkpt lat="48.6525" lon="2.51897">
        <ele>90</ele>
        <time>2015-02-05T13:28:45Z</time>
      </trkpt>
      <trkpt lat="48.65236" lon="2.51908">
        <ele>89</ele>
        <time>2015-02-05T13:28:57Z</time>
      </trkpt>
      <trkpt lat="48.65227" lon="2.51916">
        <ele>86</ele>
        <time>2015-02-05T13:29:07Z</time>
      </trkpt>
      <trkpt lat="48.65225" lon="2.51911">
        <ele>83</ele>
        <time>2015-02-05T13:29:17Z</time>
      </trkpt>
      <trkpt lat="48.6522" lon="2.51913">
        <ele>79</ele>
        <time>2015-02-05T13:29:23Z</time>
      </trkpt>
      <trkpt lat="48.65196" lon="2.51941">
        <ele>71</ele>
        <time>2015-02-05T13:29:46Z</time>
      </trkpt>
      <trkpt lat="48.6519" lon="2.51951">
        <ele>71</ele>
        <time>2015-02-05T13:29:50Z</time>
      </trkpt>
      <trkpt lat="48.65169" lon="2.51983">
        <ele>81</ele>
        <time>2015-02-05T13:30:12Z</time>
      </trkpt>
      <trkpt lat="48.65163" lon="2.51988">
        <ele>80</ele>
        <time>2015-02-05T13:30:18Z</time>
      </trkpt>
      <trkpt lat="48.65156" lon="2.51998">
        <ele>80</ele>
        <time>2015-02-05T13:30:25Z</time>
      </trkpt>
      <trkpt lat="48.65142" lon="2.52015">
        <ele>84</ele>
        <time>2015-02-05T13:30:38Z</time>
      </trkpt>
      <trkpt lat="48.65138" lon="2.5202">
        <ele>84</ele>
        <time>2015-02-05T13:30:43Z</time>
      </trkpt>
      <trkpt lat="48.65134" lon="2.52024">
        <ele>84</ele>
        <time>2015-02-05T13:30:48Z</time>
      </trkpt>
      <trkpt lat="48.65111" lon="2.52041">
        <ele>78</ele>
        <time>2015-02-05T13:31:10Z</time>
      </trkpt>
      <trkpt lat="48.65105" lon="2.52051">
        <ele>78</ele>
        <time>2015-02-05T13:31:13Z</time>
      </trkpt>
      <trkpt lat="48.65076" lon="2.52098">
        <ele>90</ele>
        <time>2015-02-05T13:31:44Z</time>
      </trkpt>
      <trkpt lat="48.65056" lon="2.52123">
        <ele>92</ele>
        <time>2015-02-05T13:32:08Z</time>
      </trkpt>
      <trkpt lat="48.65053" lon="2.52128">
        <ele>91</ele>
        <time>2015-02-05T13:32:12Z</time>
      </trkpt>
      <trkpt lat="48.65048" lon="2.52131">
        <ele>91</ele>
        <time>2015-02-05T13:32:18Z</time>
      </trkpt>
      <trkpt lat="48.65034" lon="2.52143">
        <ele>85</ele>
        <time>2015-02-05T13:32:34Z</time>
      </trkpt>
      <trkpt lat="48.65018" lon="2.52153">
        <ele>83</ele>
        <time>2015-02-05T13:32:53Z</time>
      </trkpt>
      <trkpt lat="48.65011" lon="2.52162">
        <ele>79</ele>
        <time>2015-02-05T13:33:01Z</time>
      </trkpt>
      <trkpt lat="48.65002" lon="2.52173">
        <ele>78</ele>
        <time>2015-02-05T13:33:09Z</time>
      </trkpt>
      <trkpt lat="48.64978" lon="2.52208">
        <ele>85</ele>
        <time>2015-02-05T13:33:29Z</time>
      </trkpt>
      <trkpt lat="48.64974" lon="2.52212">
        <ele>84</ele>
        <time>2015-02-05T13:33:34Z</time>
      </trkpt>
      <trkpt lat="48.64968" lon="2.52218">
        <ele>84</ele>
        <time>2015-02-05T13:33:42Z</time>
      </trkpt>
      <trkpt lat="48.64948" lon="2.52236">
        <ele>79</ele>
        <time>2015-02-05T13:34:04Z</time>
      </trkpt>
      <trkpt lat="48.64942" lon="2.52242">
        <ele>79</ele>
        <time>2015-02-05T13:34:07Z</time>
      </trkpt>
      <trkpt lat="48.64925" lon="2.52276">
        <ele>83</ele>
        <time>2015-02-05T13:34:23Z</time>
      </trkpt>
      <trkpt lat="48.64917" lon="2.52285">
        <ele>89</ele>
        <time>2015-02-05T13:34:33Z</time>
      </trkpt>
      <trkpt lat="48.64913" lon="2.52291">
        <ele>89</ele>
        <time>2015-02-05T13:34:37Z</time>
      </trkpt>
      <trkpt lat="48.64904" lon="2.52301">
        <ele>87</ele>
        <time>2015-02-05T13:34:43Z</time>
      </trkpt>
      <trkpt lat="48.64886" lon="2.52322">
        <ele>93</ele>
        <time>2015-02-05T13:35:02Z</time>
      </trkpt>
      <trkpt lat="48.6488" lon="2.52328">
        <ele>93</ele>
        <time>2015-02-05T13:35:07Z</time>
      </trkpt>
      <trkpt lat="48.64876" lon="2.52332">
        <ele>92</ele>
        <time>2015-02-05T13:35:11Z</time>
      </trkpt>
      <trkpt lat="48.64868" lon="2.5234">
        <ele>92</ele>
        <time>2015-02-05T13:35:17Z</time>
      </trkpt>
      <trkpt lat="48.64857" lon="2.52355">
        <ele>88</ele>
        <time>2015-02-05T13:35:30Z</time>
      </trkpt>
      <trkpt lat="48.64845" lon="2.52372">
        <ele>89</ele>
        <time>2015-02-05T13:35:42Z</time>
      </trkpt>
      <trkpt lat="48.64827" lon="2.524">
        <ele>93</ele>
        <time>2015-02-05T13:36:02Z</time>
      </trkpt>
      <trkpt lat="48.64803" lon="2.52422">
        <ele>90</ele>
        <time>2015-02-05T13:36:26Z</time>
      </trkpt>
      <trkpt lat="48.64794" lon="2.52431">
        <ele>91</ele>
        <time>2015-02-05T13:36:32Z</time>
      </trkpt>
      <trkpt lat="48.64782" lon="2.52449">
        <ele>92</ele>
        <time>2015-02-05T13:36:48Z</time>
      </trkpt>
      <trkpt lat="48.6475" lon="2.52472">
        <ele>83</ele>
        <time>2015-02-05T13:37:25Z</time>
      </trkpt>
      <trkpt lat="48.64744" lon="2.52485">
        <ele>82</ele>
        <time>2015-02-05T13:37:30Z</time>
      </trkpt>
      <trkpt lat="48.6473" lon="2.52508">
        <ele>83</ele>
        <time>2015-02-05T13:37:42Z</time>
      </trkpt>
      <trkpt lat="48.64717" lon="2.52515">
        <ele>82</ele>
        <time>2015-02-05T13:37:57Z</time>
      </trkpt>
      <trkpt lat="48.64709" lon="2.52525">
        <ele>78</ele>
        <time>2015-02-05T13:38:07Z</time>
      </trkpt>
      <trkpt lat="48.64693" lon="2.52542">
        <ele>76</ele>
        <time>2015-02-05T13:38:21Z</time>
      </trkpt>
      <trkpt lat="48.64667" lon="2.52577">
        <ele>78</ele>
        <time>2015-02-05T13:38:45Z</time>
      </trkpt>
      <trkpt lat="48.64649" lon="2.52592">
        <ele>72</ele>
        <time>2015-02-05T13:39:09Z</time>
      </trkpt>
      <trkpt lat="48.64643" lon="2.52602">
        <ele>72</ele>
        <time>2015-02-05T13:39:18Z</time>
      </trkpt>
      <trkpt lat="48.64635" lon="2.52612">
        <ele>73</ele>
        <time>2015-02-05T13:39:23Z</time>
      </trkpt>
      <trkpt lat="48.64626" lon="2.5262">
        <ele>73</ele>
        <time>2015-02-05T13:39:30Z</time>
      </trkpt>
      <trkpt lat="48.64619" lon="2.52629">
        <ele>74</ele>
        <time>2015-02-05T13:39:40Z</time>
      </trkpt>
      <trkpt lat="48.64613" lon="2.52641">
        <ele>78</ele>
        <time>2015-02-05T13:39:48Z</time>
      </trkpt>
      <trkpt lat="48.64606" lon="2.52653">
        <ele>79</ele>
        <time>2015-02-05T13:39:56Z</time>
      </trkpt>
      <trkpt lat="48.64575" lon="2.52681">
        <ele>78</ele>
        <time>2015-02-05T13:40:22Z</time>
      </trkpt>
      <trkpt lat="48.6454" lon="2.52744">
        <ele>94</ele>
        <time>2015-02-05T13:40:54Z</time>
      </trkpt>
      <trkpt lat="48.64507" lon="2.52766">
        <ele>85</ele>
        <time>2015-02-05T13:41:29Z</time>
      </trkpt>
      <trkpt lat="48.64505" lon="2.52772">
        <ele>84</ele>
        <time>2015-02-05T13:41:34Z</time>
      </trkpt>
      <trkpt lat="48.64492" lon="2.52784">
        <ele>83</ele>
        <time>2015-02-05T13:41:47Z</time>
      </trkpt>
      <trkpt lat="48.64484" lon="2.52792">
        <ele>81</ele>
        <time>2015-02-05T13:41:56Z</time>
      </trkpt>
      <trkpt lat="48.64478" lon="2.52804">
        <ele>81</ele>
        <time>2015-02-05T13:42:00Z</time>
      </trkpt>
      <trkpt lat="48.64464" lon="2.5283">
        <ele>89</ele>
        <time>2015-02-05T13:42:11Z</time>
      </trkpt>
      <trkpt lat="48.64438" lon="2.52861">
        <ele>91</ele>
        <time>2015-02-05T13:42:40Z</time>
      </trkpt>
      <trkpt lat="48.64406" lon="2.5289">
        <ele>84</ele>
        <time>2015-02-05T13:43:13Z</time>
      </trkpt>
      <trkpt lat="48.64399" lon="2.52899">
        <ele>82</ele>
        <time>2015-02-05T13:43:21Z</time>
      </trkpt>
      <trkpt lat="48.6439" lon="2.52892">
        <ele>80</ele>
        <time>2015-02-05T13:43:33Z</time>
      </trkpt>
      <trkpt lat="48.64381" lon="2.52889">
        <ele>80</ele>
        <time>2015-02-05T13:43:39Z</time>
      </trkpt>
      <trkpt lat="48.64372" lon="2.52875">
        <ele>76</ele>
        <time>2015-02-05T13:43:49Z</time>
      </trkpt>
      <trkpt lat="48.64368" lon="2.5287">
        <ele>76</ele>
        <time>2015-02-05T13:43:53Z</time>
      </trkpt>
      <trkpt lat="48.6435" lon="2.52847">
        <ele>71</ele>
        <time>2015-02-05T13:44:10Z</time>
      </trkpt>
      <trkpt lat="48.64346" lon="2.52837">
        <ele>71</ele>
        <time>2015-02-05T13:44:16Z</time>
      </trkpt>
      <trkpt lat="48.64341" lon="2.52825">
        <ele>72</ele>
        <time>2015-02-05T13:44:23Z</time>
      </trkpt>
      <trkpt lat="48.64336" lon="2.52817">
        <ele>72</ele>
        <time>2015-02-05T13:44:30Z</time>
      </trkpt>
      <trkpt lat="48.64329" lon="2.52805">
        <ele>73</ele>
        <time>2015-02-05T13:44:37Z</time>
      </trkpt>
      <trkpt lat="48.64317" lon="2.52783">
        <ele>71</ele>
        <time>2015-02-05T13:44:51Z</time>
      </trkpt>
      <trkpt lat="48.64314" lon="2.52774">
        <ele>72</ele>
        <time>2015-02-05T13:44:56Z</time>
      </trkpt>
      <trkpt lat="48.64305" lon="2.5276">
        <ele>69</ele>
        <time>2015-02-05T13:45:07Z</time>
      </trkpt>
      <trkpt lat="48.64299" lon="2.52747">
        <ele>70</ele>
        <time>2015-02-05T13:45:15Z</time>
      </trkpt>
      <trkpt lat="48.6429" lon="2.52737">
        <ele>76</ele>
        <time>2015-02-05T13:46:00Z</time>
      </trkpt>
      <trkpt lat="48.64281" lon="2.52711">
        <ele>72</ele>
        <time>2015-02-05T13:46:13Z</time>
      </trkpt>
      <trkpt lat="48.64276" lon="2.527">
        <ele>73</ele>
        <time>2015-02-05T13:46:19Z</time>
      </trkpt>
      <trkpt lat="48.64269" lon="2.52694">
        <ele>73</ele>
        <time>2015-02-05T13:46:25Z</time>
      </trkpt>
      <trkpt lat="48.64262" lon="2.52685">
        <ele>74</ele>
        <time>2015-02-05T13:46:34Z</time>
      </trkpt>
      <trkpt lat="48.64257" lon="2.52683">
        <ele>76</ele>
        <time>2015-02-05T13:46:43Z</time>
      </trkpt>
      <trkpt lat="48.64254" lon="2.52682">
        <ele>82</ele>
        <time>2015-02-05T13:48:27Z</time>
      </trkpt>
      <trkpt lat="48.64253" lon="2.52677">
        <ele>88</ele>
        <time>2015-02-05T13:50:07Z</time>
      </trkpt>
      <trkpt lat="48.64259" lon="2.52677">
        <ele>88</ele>
        <time>2015-02-05T13:51:03Z</time>
      </trkpt>
      <trkpt lat="48.64261" lon="2.52684">
        <ele>85</ele>
        <time>2015-02-05T13:54:42Z</time>
      </trkpt>
      <trkpt lat="48.6425" lon="2.52683">
        <ele>83</ele>
        <time>2015-02-05T13:56:03Z</time>
      </trkpt>
      <trkpt lat="48.6423" lon="2.52692">
        <ele>80</ele>
        <time>2015-02-05T13:56:18Z</time>
      </trkpt>
      <trkpt lat="48.64225" lon="2.52694">
        <ele>81</ele>
        <time>2015-02-05T13:56:23Z</time>
      </trkpt>
      <trkpt lat="48.64175" lon="2.52688">
        <ele>75</ele>
        <time>2015-02-05T13:56:59Z</time>
      </trkpt>
      <trkpt lat="48.64158" lon="2.52688">
        <ele>75</ele>
        <time>2015-02-05T13:57:11Z</time>
      </trkpt>
      <trkpt lat="48.64143" lon="2.52689">
        <ele>73</ele>
        <time>2015-02-05T13:57:23Z</time>
      </trkpt>
      <trkpt lat="48.64123" lon="2.52691">
        <ele>73</ele>
        <time>2015-02-05T13:57:38Z</time>
      </trkpt>
      <trkpt lat="48.64118" lon="2.5269">
        <ele>73</ele>
        <time>2015-02-05T13:57:42Z</time>
      </trkpt>
      <trkpt lat="48.64108" lon="2.52694">
        <ele>73</ele>
        <time>2015-02-05T13:57:51Z</time>
      </trkpt>
      <trkpt lat="48.64104" lon="2.52699">
        <ele>72</ele>
        <time>2015-02-05T13:57:54Z</time>
      </trkpt>
      <trkpt lat="48.64097" lon="2.52707">
        <ele>73</ele>
        <time>2015-02-05T13:58:01Z</time>
      </trkpt>
      <trkpt lat="48.64089" lon="2.52713">
        <ele>73</ele>
        <time>2015-02-05T13:58:08Z</time>
      </trkpt>
      <trkpt lat="48.6408" lon="2.52715">
        <ele>72</ele>
        <time>2015-02-05T13:58:18Z</time>
      </trkpt>
      <trkpt lat="48.64059" lon="2.52719">
        <ele>72</ele>
        <time>2015-02-05T13:58:33Z</time>
      </trkpt>
      <trkpt lat="48.64043" lon="2.52721">
        <ele>74</ele>
        <time>2015-02-05T13:58:45Z</time>
      </trkpt>
      <trkpt lat="48.64038" lon="2.5272">
        <ele>74</ele>
        <time>2015-02-05T13:58:48Z</time>
      </trkpt>
      <trkpt lat="48.64034" lon="2.5272">
        <ele>75</ele>
        <time>2015-02-05T13:58:52Z</time>
      </trkpt>
      <trkpt lat="48.64029" lon="2.5272">
        <ele>75</ele>
        <time>2015-02-05T13:58:56Z</time>
      </trkpt>
      <trkpt lat="48.64008" lon="2.5272">
        <ele>75</ele>
        <time>2015-02-05T13:59:11Z</time>
      </trkpt>
      <trkpt lat="48.63998" lon="2.52721">
        <ele>76</ele>
        <time>2015-02-05T13:59:19Z</time>
      </trkpt>
      <trkpt lat="48.63993" lon="2.52722">
        <ele>75</ele>
        <time>2015-02-05T13:59:25Z</time>
      </trkpt>
      <trkpt lat="48.63988" lon="2.52722">
        <ele>76</ele>
        <time>2015-02-05T13:59:28Z</time>
      </trkpt>
      <trkpt lat="48.63967" lon="2.52725">
        <ele>77</ele>
        <time>2015-02-05T13:59:44Z</time>
      </trkpt>
      <trkpt lat="48.63957" lon="2.52724">
        <ele>76</ele>
        <time>2015-02-05T13:59:53Z</time>
      </trkpt>
      <trkpt lat="48.63952" lon="2.52724">
        <ele>76</ele>
        <time>2015-02-05T13:59:57Z</time>
      </trkpt>
      <trkpt lat="48.6393" lon="2.52727">
        <ele>76</ele>
        <time>2015-02-05T14:00:13Z</time>
      </trkpt>
      <trkpt lat="48.6392" lon="2.52727">
        <ele>77</ele>
        <time>2015-02-05T14:00:21Z</time>
      </trkpt>
      <trkpt lat="48.63903" lon="2.52728">
        <ele>78</ele>
        <time>2015-02-05T14:00:33Z</time>
      </trkpt>
      <trkpt lat="48.63893" lon="2.52728">
        <ele>77</ele>
        <time>2015-02-05T14:00:41Z</time>
      </trkpt>
      <trkpt lat="48.63868" lon="2.52733">
        <ele>77</ele>
        <time>2015-02-05T14:00:59Z</time>
      </trkpt>
      <trkpt lat="48.63863" lon="2.52733">
        <ele>77</ele>
        <time>2015-02-05T14:01:03Z</time>
      </trkpt>
      <trkpt lat="48.63852" lon="2.52733">
        <ele>77</ele>
        <time>2015-02-05T14:01:16Z</time>
      </trkpt>
      <trkpt lat="48.63841" lon="2.52734">
        <ele>79</ele>
        <time>2015-02-05T14:01:22Z</time>
      </trkpt>
      <trkpt lat="48.63835" lon="2.52735">
        <ele>77</ele>
        <time>2015-02-05T14:01:27Z</time>
      </trkpt>
      <trkpt lat="48.63819" lon="2.52736">
        <ele>78</ele>
        <time>2015-02-05T14:01:38Z</time>
      </trkpt>
      <trkpt lat="48.63814" lon="2.52736">
        <ele>77</ele>
        <time>2015-02-05T14:01:42Z</time>
      </trkpt>
      <trkpt lat="48.63808" lon="2.52736">
        <ele>77</ele>
        <time>2015-02-05T14:01:46Z</time>
      </trkpt>
      <trkpt lat="48.63791" lon="2.52737">
        <ele>78</ele>
        <time>2015-02-05T14:01:58Z</time>
      </trkpt>
      <trkpt lat="48.6378" lon="2.52736">
        <ele>77</ele>
        <time>2015-02-05T14:02:07Z</time>
      </trkpt>
      <trkpt lat="48.63775" lon="2.52738">
        <ele>77</ele>
        <time>2015-02-05T14:02:11Z</time>
      </trkpt>
      <trkpt lat="48.6377" lon="2.5274">
        <ele>77</ele>
        <time>2015-02-05T14:02:14Z</time>
      </trkpt>
      <trkpt lat="48.63765" lon="2.5274">
        <ele>76</ele>
        <time>2015-02-05T14:02:18Z</time>
      </trkpt>
      <trkpt lat="48.63755" lon="2.5274">
        <ele>76</ele>
        <time>2015-02-05T14:02:26Z</time>
      </trkpt>
      <trkpt lat="48.63749" lon="2.52741">
        <ele>77</ele>
        <time>2015-02-05T14:02:30Z</time>
      </trkpt>
      <trkpt lat="48.63738" lon="2.52742">
        <ele>76</ele>
        <time>2015-02-05T14:02:38Z</time>
      </trkpt>
      <trkpt lat="48.63703" lon="2.52746">
        <ele>78</ele>
        <time>2015-02-05T14:03:06Z</time>
      </trkpt>
      <trkpt lat="48.63685" lon="2.52745">
        <ele>77</ele>
        <time>2015-02-05T14:03:20Z</time>
      </trkpt>
      <trkpt lat="48.6368" lon="2.52746">
        <ele>77</ele>
        <time>2015-02-05T14:03:24Z</time>
      </trkpt>
      <trkpt lat="48.63665" lon="2.52748">
        <ele>77</ele>
        <time>2015-02-05T14:03:36Z</time>
      </trkpt>
      <trkpt lat="48.63659" lon="2.52749">
        <ele>77</ele>
        <time>2015-02-05T14:03:40Z</time>
      </trkpt>
      <trkpt lat="48.63649" lon="2.52749">
        <ele>78</ele>
        <time>2015-02-05T14:03:48Z</time>
      </trkpt>
      <trkpt lat="48.63639" lon="2.52751">
        <ele>77</ele>
        <time>2015-02-05T14:03:55Z</time>
      </trkpt>
      <trkpt lat="48.63613" lon="2.52753">
        <ele>79</ele>
        <time>2015-02-05T14:04:15Z</time>
      </trkpt>
      <trkpt lat="48.63602" lon="2.52755">
        <ele>78</ele>
        <time>2015-02-05T14:04:24Z</time>
      </trkpt>
      <trkpt lat="48.63592" lon="2.52756">
        <ele>78</ele>
        <time>2015-02-05T14:04:32Z</time>
      </trkpt>
      <trkpt lat="48.63587" lon="2.52755">
        <ele>79</ele>
        <time>2015-02-05T14:04:39Z</time>
      </trkpt>
      <trkpt lat="48.63583" lon="2.52756">
        <ele>80</ele>
        <time>2015-02-05T14:04:43Z</time>
      </trkpt>
      <trkpt lat="48.63578" lon="2.52756">
        <ele>79</ele>
        <time>2015-02-05T14:04:47Z</time>
      </trkpt>
      <trkpt lat="48.63572" lon="2.52755">
        <ele>79</ele>
        <time>2015-02-05T14:04:51Z</time>
      </trkpt>
      <trkpt lat="48.63567" lon="2.52756">
        <ele>80</ele>
        <time>2015-02-05T14:04:55Z</time>
      </trkpt>
      <trkpt lat="48.63556" lon="2.52758">
        <ele>80</ele>
        <time>2015-02-05T14:05:03Z</time>
      </trkpt>
      <trkpt lat="48.63551" lon="2.52759">
        <ele>80</ele>
        <time>2015-02-05T14:05:07Z</time>
      </trkpt>
      <trkpt lat="48.63518" lon="2.52762">
        <ele>80</ele>
        <time>2015-02-05T14:05:31Z</time>
      </trkpt>
      <trkpt lat="48.63507" lon="2.52763">
        <ele>80</ele>
        <time>2015-02-05T14:05:39Z</time>
      </trkpt>
      <trkpt lat="48.63502" lon="2.52764">
        <ele>80</ele>
        <time>2015-02-05T14:05:43Z</time>
      </trkpt>
      <trkpt lat="48.63497" lon="2.52764">
        <ele>80</ele>
        <time>2015-02-05T14:05:47Z</time>
      </trkpt>
      <trkpt lat="48.63492" lon="2.52764">
        <ele>81</ele>
        <time>2015-02-05T14:05:51Z</time>
      </trkpt>
      <trkpt lat="48.6345" lon="2.52766">
        <ele>80</ele>
        <time>2015-02-05T14:06:24Z</time>
      </trkpt>
      <trkpt lat="48.63439" lon="2.52766">
        <ele>80</ele>
        <time>2015-02-05T14:06:32Z</time>
      </trkpt>
      <trkpt lat="48.63424" lon="2.52766">
        <ele>80</ele>
        <time>2015-02-05T14:06:44Z</time>
      </trkpt>
      <trkpt lat="48.63402" lon="2.5277">
        <ele>81</ele>
        <time>2015-02-05T14:07:00Z</time>
      </trkpt>
      <trkpt lat="48.63395" lon="2.52763">
        <ele>82</ele>
        <time>2015-02-05T14:07:13Z</time>
      </trkpt>
      <trkpt lat="48.63393" lon="2.52758">
        <ele>81</ele>
        <time>2015-02-05T14:08:16Z</time>
      </trkpt>
      <trkpt lat="48.63388" lon="2.52758">
        <ele>81</ele>
        <time>2015-02-05T14:08:20Z</time>
      </trkpt>
      <trkpt lat="48.63384" lon="2.52762">
        <ele>81</ele>
        <time>2015-02-05T14:08:26Z</time>
      </trkpt>
      <trkpt lat="48.63379" lon="2.52762">
        <ele>81</ele>
        <time>2015-02-05T14:08:32Z</time>
      </trkpt>
      <trkpt lat="48.63374" lon="2.52767">
        <ele>81</ele>
        <time>2015-02-05T14:08:52Z</time>
      </trkpt>
      <trkpt lat="48.63343" lon="2.52763">
        <ele>79</ele>
        <time>2015-02-05T14:09:21Z</time>
      </trkpt>
      <trkpt lat="48.63306" lon="2.52766">
        <ele>81</ele>
        <time>2015-02-05T14:09:49Z</time>
      </trkpt>
      <trkpt lat="48.63285" lon="2.5277">
        <ele>84</ele>
        <time>2015-02-05T14:10:06Z</time>
      </trkpt>
      <trkpt lat="48.63275" lon="2.52771">
        <ele>85</ele>
        <time>2015-02-05T14:10:14Z</time>
      </trkpt>
      <trkpt lat="48.63266" lon="2.52771">
        <ele>84</ele>
        <time>2015-02-05T14:10:22Z</time>
      </trkpt>
      <trkpt lat="48.63259" lon="2.5277">
        <ele>85</ele>
        <time>2015-02-05T14:10:32Z</time>
      </trkpt>
      <trkpt lat="48.63254" lon="2.52772">
        <ele>85</ele>
        <time>2015-02-05T14:10:36Z</time>
      </trkpt>
      <trkpt lat="48.63219" lon="2.52777">
        <ele>88</ele>
        <time>2015-02-05T14:11:04Z</time>
      </trkpt>
      <trkpt lat="48.63214" lon="2.52777">
        <ele>87</ele>
        <time>2015-02-05T14:11:07Z</time>
      </trkpt>
      <trkpt lat="48.63209" lon="2.52777">
        <ele>88</ele>
        <time>2015-02-05T14:11:11Z</time>
      </trkpt>
      <trkpt lat="48.63204" lon="2.52778">
        <ele>88</ele>
        <time>2015-02-05T14:11:15Z</time>
      </trkpt>
      <trkpt lat="48.63193" lon="2.52777">
        <ele>88</ele>
        <time>2015-02-05T14:11:24Z</time>
      </trkpt>
      <trkpt lat="48.63188" lon="2.52776">
        <ele>88</ele>
        <time>2015-02-05T14:11:28Z</time>
      </trkpt>
      <trkpt lat="48.63183" lon="2.52779">
        <ele>88</ele>
        <time>2015-02-05T14:11:32Z</time>
      </trkpt>
      <trkpt lat="48.63178" lon="2.52779">
        <ele>87</ele>
        <time>2015-02-05T14:11:36Z</time>
      </trkpt>
      <trkpt lat="48.63172" lon="2.52778">
        <ele>86</ele>
        <time>2015-02-05T14:11:40Z</time>
      </trkpt>
      <trkpt lat="48.63167" lon="2.52778">
        <ele>86</ele>
        <time>2015-02-05T14:11:45Z</time>
      </trkpt>
      <trkpt lat="48.63162" lon="2.52778">
        <ele>86</ele>
        <time>2015-02-05T14:11:49Z</time>
      </trkpt>
      <trkpt lat="48.63158" lon="2.52778">
        <ele>86</ele>
        <time>2015-02-05T14:11:53Z</time>
      </trkpt>
      <trkpt lat="48.63153" lon="2.52778">
        <ele>86</ele>
        <time>2015-02-05T14:11:57Z</time>
      </trkpt>
      <trkpt lat="48.63147" lon="2.52779">
        <ele>85</ele>
        <time>2015-02-05T14:12:01Z</time>
      </trkpt>
      <trkpt lat="48.63142" lon="2.52778">
        <ele>85</ele>
        <time>2015-02-05T14:12:06Z</time>
      </trkpt>
      <trkpt lat="48.63131" lon="2.5278">
        <ele>83</ele>
        <time>2015-02-05T14:12:14Z</time>
      </trkpt>
      <trkpt lat="48.63125" lon="2.5278">
        <ele>83</ele>
        <time>2015-02-05T14:12:18Z</time>
      </trkpt>
      <trkpt lat="48.63119" lon="2.52781">
        <ele>83</ele>
        <time>2015-02-05T14:12:22Z</time>
      </trkpt>
      <trkpt lat="48.63111" lon="2.52782">
        <ele>83</ele>
        <time>2015-02-05T14:12:28Z</time>
      </trkpt>
      <trkpt lat="48.63101" lon="2.52784">
        <ele>83</ele>
        <time>2015-02-05T14:12:36Z</time>
      </trkpt>
      <trkpt lat="48.63096" lon="2.52784">
        <ele>83</ele>
        <time>2015-02-05T14:12:40Z</time>
      </trkpt>
      <trkpt lat="48.63091" lon="2.52784">
        <ele>82</ele>
        <time>2015-02-05T14:12:43Z</time>
      </trkpt>
      <trkpt lat="48.63071" lon="2.52786">
        <ele>83</ele>
        <time>2015-02-05T14:13:00Z</time>
      </trkpt>
      <trkpt lat="48.63065" lon="2.52787">
        <ele>83</ele>
        <time>2015-02-05T14:13:04Z</time>
      </trkpt>
      <trkpt lat="48.63049" lon="2.52788">
        <ele>82</ele>
        <time>2015-02-05T14:13:17Z</time>
      </trkpt>
      <trkpt lat="48.63041" lon="2.52789">
        <ele>82</ele>
        <time>2015-02-05T14:13:23Z</time>
      </trkpt>
      <trkpt lat="48.63033" lon="2.5279">
        <ele>82</ele>
        <time>2015-02-05T14:13:29Z</time>
      </trkpt>
      <trkpt lat="48.63027" lon="2.52791">
        <ele>81</ele>
        <time>2015-02-05T14:13:33Z</time>
      </trkpt>
      <trkpt lat="48.63017" lon="2.52795">
        <ele>83</ele>
        <time>2015-02-05T14:13:42Z</time>
      </trkpt>
      <trkpt lat="48.63012" lon="2.52796">
        <ele>83</ele>
        <time>2015-02-05T14:13:46Z</time>
      </trkpt>
      <trkpt lat="48.63002" lon="2.52796">
        <ele>83</ele>
        <time>2015-02-05T14:13:53Z</time>
      </trkpt>
      <trkpt lat="48.62997" lon="2.52793">
        <ele>83</ele>
        <time>2015-02-05T14:13:57Z</time>
      </trkpt>
      <trkpt lat="48.62982" lon="2.52782">
        <ele>80</ele>
        <time>2015-02-05T14:14:11Z</time>
      </trkpt>
      <trkpt lat="48.62977" lon="2.52779">
        <ele>80</ele>
        <time>2015-02-05T14:14:16Z</time>
      </trkpt>
      <trkpt lat="48.62962" lon="2.52781">
        <ele>81</ele>
        <time>2015-02-05T14:14:29Z</time>
      </trkpt>
      <trkpt lat="48.62957" lon="2.52783">
        <ele>82</ele>
        <time>2015-02-05T14:14:33Z</time>
      </trkpt>
      <trkpt lat="48.62948" lon="2.52786">
        <ele>83</ele>
        <time>2015-02-05T14:14:39Z</time>
      </trkpt>
      <trkpt lat="48.62944" lon="2.52786">
        <ele>84</ele>
        <time>2015-02-05T14:14:43Z</time>
      </trkpt>
      <trkpt lat="48.62938" lon="2.52787">
        <ele>84</ele>
        <time>2015-02-05T14:14:47Z</time>
      </trkpt>
      <trkpt lat="48.62933" lon="2.52786">
        <ele>83</ele>
        <time>2015-02-05T14:14:51Z</time>
      </trkpt>
      <trkpt lat="48.62927" lon="2.52784">
        <ele>84</ele>
        <time>2015-02-05T14:14:59Z</time>
      </trkpt>
      <trkpt lat="48.62923" lon="2.52782">
        <ele>84</ele>
        <time>2015-02-05T14:15:02Z</time>
      </trkpt>
      <trkpt lat="48.62919" lon="2.52775">
        <ele>83</ele>
        <time>2015-02-05T14:15:06Z</time>
      </trkpt>
      <trkpt lat="48.6292" lon="2.52767">
        <ele>83</ele>
        <time>2015-02-05T14:15:11Z</time>
      </trkpt>
      <trkpt lat="48.62919" lon="2.5276">
        <ele>83</ele>
        <time>2015-02-05T14:15:14Z</time>
      </trkpt>
      <trkpt lat="48.62918" lon="2.52752">
        <ele>83</ele>
        <time>2015-02-05T14:15:19Z</time>
      </trkpt>
      <trkpt lat="48.62917" lon="2.52725">
        <ele>80</ele>
        <time>2015-02-05T14:15:33Z</time>
      </trkpt>
      <trkpt lat="48.62917" lon="2.52716">
        <ele>80</ele>
        <time>2015-02-05T14:15:39Z</time>
      </trkpt>
      <trkpt lat="48.62917" lon="2.52702">
        <ele>79</ele>
        <time>2015-02-05T14:15:45Z</time>
      </trkpt>
      <trkpt lat="48.62916" lon="2.52694">
        <ele>79</ele>
        <time>2015-02-05T14:15:50Z</time>
      </trkpt>
      <trkpt lat="48.62916" lon="2.52686">
        <ele>77</ele>
        <time>2015-02-05T14:15:54Z</time>
      </trkpt>
      <trkpt lat="48.62916" lon="2.52677">
        <ele>77</ele>
        <time>2015-02-05T14:15:58Z</time>
      </trkpt>
      <trkpt lat="48.62914" lon="2.52669">
        <ele>78</ele>
        <time>2015-02-05T14:16:02Z</time>
      </trkpt>
      <trkpt lat="48.62913" lon="2.52662">
        <ele>78</ele>
        <time>2015-02-05T14:16:06Z</time>
      </trkpt>
      <trkpt lat="48.62913" lon="2.52634">
        <ele>81</ele>
        <time>2015-02-05T14:16:30Z</time>
      </trkpt>
      <trkpt lat="48.62908" lon="2.52609">
        <ele>80</ele>
        <time>2015-02-05T14:16:44Z</time>
      </trkpt>
      <trkpt lat="48.62906" lon="2.52602">
        <ele>80</ele>
        <time>2015-02-05T14:16:47Z</time>
      </trkpt>
      <trkpt lat="48.62902" lon="2.52588">
        <ele>79</ele>
        <time>2015-02-05T14:16:55Z</time>
      </trkpt>
      <trkpt lat="48.62896" lon="2.52575">
        <ele>80</ele>
        <time>2015-02-05T14:17:02Z</time>
      </trkpt>
      <trkpt lat="48.62893" lon="2.52569">
        <ele>80</ele>
        <time>2015-02-05T14:17:06Z</time>
      </trkpt>
      <trkpt lat="48.62886" lon="2.52556">
        <ele>80</ele>
        <time>2015-02-05T14:17:15Z</time>
      </trkpt>
      <trkpt lat="48.62883" lon="2.5255">
        <ele>80</ele>
        <time>2015-02-05T14:17:19Z</time>
      </trkpt>
      <trkpt lat="48.62878" lon="2.52538">
        <ele>81</ele>
        <time>2015-02-05T14:17:27Z</time>
      </trkpt>
      <trkpt lat="48.62871" lon="2.52526">
        <ele>81</ele>
        <time>2015-02-05T14:17:35Z</time>
      </trkpt>
      <trkpt lat="48.62865" lon="2.52514">
        <ele>81</ele>
        <time>2015-02-05T14:17:44Z</time>
      </trkpt>
      <trkpt lat="48.62862" lon="2.52508">
        <ele>81</ele>
        <time>2015-02-05T14:17:48Z</time>
      </trkpt>
      <trkpt lat="48.62859" lon="2.52501">
        <ele>80</ele>
        <time>2015-02-05T14:17:53Z</time>
      </trkpt>
      <trkpt lat="48.62838" lon="2.52462">
        <ele>81</ele>
        <time>2015-02-05T14:18:21Z</time>
      </trkpt>
      <trkpt lat="48.62835" lon="2.52455">
        <ele>80</ele>
        <time>2015-02-05T14:18:25Z</time>
      </trkpt>
      <trkpt lat="48.62832" lon="2.5245">
        <ele>80</ele>
        <time>2015-02-05T14:18:29Z</time>
      </trkpt>
      <trkpt lat="48.62829" lon="2.52444">
        <ele>80</ele>
        <time>2015-02-05T14:18:34Z</time>
      </trkpt>
      <trkpt lat="48.62823" lon="2.52432">
        <ele>81</ele>
        <time>2015-02-05T14:18:40Z</time>
      </trkpt>
      <trkpt lat="48.62819" lon="2.52426">
        <ele>80</ele>
        <time>2015-02-05T14:18:45Z</time>
      </trkpt>
      <trkpt lat="48.62816" lon="2.52419">
        <ele>80</ele>
        <time>2015-02-05T14:18:49Z</time>
      </trkpt>
      <trkpt lat="48.62808" lon="2.52408">
        <ele>79</ele>
        <time>2015-02-05T14:18:58Z</time>
      </trkpt>
      <trkpt lat="48.62804" lon="2.52404">
        <ele>79</ele>
        <time>2015-02-05T14:19:02Z</time>
      </trkpt>
      <trkpt lat="48.6279" lon="2.5238">
        <ele>75</ele>
        <time>2015-02-05T14:19:20Z</time>
      </trkpt>
      <trkpt lat="48.62783" lon="2.52367">
        <ele>75</ele>
        <time>2015-02-05T14:19:28Z</time>
      </trkpt>
      <trkpt lat="48.62766" lon="2.52337">
        <ele>77</ele>
        <time>2015-02-05T14:19:47Z</time>
      </trkpt>
      <trkpt lat="48.62764" lon="2.5233">
        <ele>77</ele>
        <time>2015-02-05T14:19:52Z</time>
      </trkpt>
      <trkpt lat="48.62762" lon="2.52324">
        <ele>76</ele>
        <time>2015-02-05T14:19:56Z</time>
      </trkpt>
      <trkpt lat="48.62759" lon="2.52318">
        <ele>75</ele>
        <time>2015-02-05T14:20:00Z</time>
      </trkpt>
      <trkpt lat="48.62756" lon="2.52312">
        <ele>76</ele>
        <time>2015-02-05T14:20:03Z</time>
      </trkpt>
      <trkpt lat="48.62749" lon="2.52301">
        <ele>76</ele>
        <time>2015-02-05T14:20:11Z</time>
      </trkpt>
      <trkpt lat="48.62743" lon="2.5229">
        <ele>76</ele>
        <time>2015-02-05T14:20:19Z</time>
      </trkpt>
      <trkpt lat="48.62735" lon="2.52279">
        <ele>75</ele>
        <time>2015-02-05T14:20:27Z</time>
      </trkpt>
      <trkpt lat="48.62732" lon="2.52273">
        <ele>76</ele>
        <time>2015-02-05T14:20:31Z</time>
      </trkpt>
      <trkpt lat="48.62729" lon="2.52266">
        <ele>75</ele>
        <time>2015-02-05T14:20:36Z</time>
      </trkpt>
      <trkpt lat="48.6272" lon="2.52248">
        <ele>73</ele>
        <time>2015-02-05T14:20:49Z</time>
      </trkpt>
      <trkpt lat="48.62718" lon="2.52242">
        <ele>73</ele>
        <time>2015-02-05T14:20:53Z</time>
      </trkpt>
      <trkpt lat="48.62712" lon="2.52231">
        <ele>75</ele>
        <time>2015-02-05T14:21:00Z</time>
      </trkpt>
      <trkpt lat="48.62703" lon="2.52211">
        <ele>72</ele>
        <time>2015-02-05T14:21:14Z</time>
      </trkpt>
      <trkpt lat="48.62697" lon="2.52199">
        <ele>72</ele>
        <time>2015-02-05T14:21:22Z</time>
      </trkpt>
      <trkpt lat="48.62668" lon="2.52147">
        <ele>76</ele>
        <time>2015-02-05T14:21:56Z</time>
      </trkpt>
      <trkpt lat="48.62665" lon="2.52142">
        <ele>76</ele>
        <time>2015-02-05T14:22:00Z</time>
      </trkpt>
      <trkpt lat="48.62659" lon="2.5213">
        <ele>76</ele>
        <time>2015-02-05T14:22:08Z</time>
      </trkpt>
      <trkpt lat="48.62656" lon="2.52124">
        <ele>76</ele>
        <time>2015-02-05T14:22:11Z</time>
      </trkpt>
      <trkpt lat="48.62653" lon="2.52119">
        <ele>77</ele>
        <time>2015-02-05T14:22:15Z</time>
      </trkpt>
      <trkpt lat="48.62649" lon="2.52114">
        <ele>76</ele>
        <time>2015-02-05T14:22:19Z</time>
      </trkpt>
      <trkpt lat="48.62642" lon="2.52094">
        <ele>77</ele>
        <time>2015-02-05T14:22:32Z</time>
      </trkpt>
      <trkpt lat="48.62638" lon="2.52085">
        <ele>76</ele>
        <time>2015-02-05T14:22:37Z</time>
      </trkpt>
      <trkpt lat="48.62627" lon="2.52069">
        <ele>77</ele>
        <time>2015-02-05T14:22:49Z</time>
      </trkpt>
      <trkpt lat="48.62624" lon="2.52064">
        <ele>76</ele>
        <time>2015-02-05T14:22:53Z</time>
      </trkpt>
      <trkpt lat="48.62621" lon="2.52057">
        <ele>76</ele>
        <time>2015-02-05T14:22:57Z</time>
      </trkpt>
      <trkpt lat="48.62617" lon="2.52048">
        <ele>76</ele>
        <time>2015-02-05T14:23:04Z</time>
      </trkpt>
      <trkpt lat="48.6261" lon="2.52036">
        <ele>76</ele>
        <time>2015-02-05T14:23:13Z</time>
      </trkpt>
      <trkpt lat="48.62607" lon="2.52029">
        <ele>74</ele>
        <time>2015-02-05T14:23:18Z</time>
      </trkpt>
      <trkpt lat="48.62603" lon="2.52021">
        <ele>74</ele>
        <time>2015-02-05T14:23:21Z</time>
      </trkpt>
      <trkpt lat="48.62592" lon="2.52002">
        <ele>77</ele>
        <time>2015-02-05T14:23:34Z</time>
      </trkpt>
      <trkpt lat="48.62588" lon="2.51991">
        <ele>77</ele>
        <time>2015-02-05T14:23:42Z</time>
      </trkpt>
      <trkpt lat="48.62585" lon="2.51982">
        <ele>78</ele>
        <time>2015-02-05T14:23:47Z</time>
      </trkpt>
      <trkpt lat="48.62582" lon="2.51975">
        <ele>78</ele>
        <time>2015-02-05T14:23:53Z</time>
      </trkpt>
      <trkpt lat="48.62577" lon="2.51966">
        <ele>81</ele>
        <time>2015-02-05T14:24:42Z</time>
      </trkpt>
      <trkpt lat="48.6258" lon="2.51958">
        <ele>81</ele>
        <time>2015-02-05T14:24:47Z</time>
      </trkpt>
      <trkpt lat="48.62591" lon="2.51942">
        <ele>82</ele>
        <time>2015-02-05T14:25:01Z</time>
      </trkpt>
      <trkpt lat="48.62622" lon="2.51906">
        <ele>78</ele>
        <time>2015-02-05T14:25:32Z</time>
      </trkpt>
      <trkpt lat="48.62626" lon="2.51901">
        <ele>78</ele>
        <time>2015-02-05T14:25:36Z</time>
      </trkpt>
      <trkpt lat="48.6263" lon="2.51895">
        <ele>79</ele>
        <time>2015-02-05T14:25:40Z</time>
      </trkpt>
      <trkpt lat="48.62639" lon="2.51885">
        <ele>79</ele>
        <time>2015-02-05T14:25:48Z</time>
      </trkpt>
      <trkpt lat="48.62644" lon="2.5188">
        <ele>79</ele>
        <time>2015-02-05T14:25:52Z</time>
      </trkpt>
      <trkpt lat="48.62658" lon="2.51861">
        <ele>79</ele>
        <time>2015-02-05T14:26:06Z</time>
      </trkpt>
      <trkpt lat="48.62676" lon="2.51843">
        <ele>82</ele>
        <time>2015-02-05T14:26:23Z</time>
      </trkpt>
      <trkpt lat="48.62681" lon="2.51839">
        <ele>82</ele>
        <time>2015-02-05T14:26:27Z</time>
      </trkpt>
      <trkpt lat="48.62688" lon="2.51827">
        <ele>81</ele>
        <time>2015-02-05T14:26:35Z</time>
      </trkpt>
      <trkpt lat="48.62692" lon="2.51821">
        <ele>81</ele>
        <time>2015-02-05T14:26:39Z</time>
      </trkpt>
      <trkpt lat="48.62697" lon="2.51816">
        <ele>81</ele>
        <time>2015-02-05T14:26:43Z</time>
      </trkpt>
      <trkpt lat="48.62701" lon="2.51812">
        <ele>81</ele>
        <time>2015-02-05T14:26:47Z</time>
      </trkpt>
      <trkpt lat="48.62711" lon="2.51802">
        <ele>80</ele>
        <time>2015-02-05T14:26:56Z</time>
      </trkpt>
      <trkpt lat="48.62719" lon="2.51793">
        <ele>80</ele>
        <time>2015-02-05T14:27:04Z</time>
      </trkpt>
      <trkpt lat="48.62727" lon="2.51783">
        <ele>80</ele>
        <time>2015-02-05T14:27:12Z</time>
      </trkpt>
      <trkpt lat="48.6273" lon="2.51779">
        <ele>80</ele>
        <time>2015-02-05T14:27:16Z</time>
      </trkpt>
      <trkpt lat="48.62734" lon="2.51773">
        <ele>80</ele>
        <time>2015-02-05T14:27:20Z</time>
      </trkpt>
      <trkpt lat="48.62738" lon="2.51768">
        <ele>80</ele>
        <time>2015-02-05T14:27:24Z</time>
      </trkpt>
      <trkpt lat="48.62746" lon="2.51759">
        <ele>81</ele>
        <time>2015-02-05T14:27:33Z</time>
      </trkpt>
      <trkpt lat="48.62762" lon="2.51738">
        <ele>80</ele>
        <time>2015-02-05T14:27:49Z</time>
      </trkpt>
      <trkpt lat="48.62765" lon="2.51734">
        <ele>80</ele>
        <time>2015-02-05T14:27:53Z</time>
      </trkpt>
      <trkpt lat="48.62773" lon="2.51724">
        <ele>81</ele>
        <time>2015-02-05T14:28:01Z</time>
      </trkpt>
      <trkpt lat="48.62777" lon="2.5172">
        <ele>80</ele>
        <time>2015-02-05T14:28:05Z</time>
      </trkpt>
      <trkpt lat="48.62795" lon="2.51692">
        <ele>83</ele>
        <time>2015-02-05T14:28:26Z</time>
      </trkpt>
      <trkpt lat="48.62797" lon="2.51686">
        <ele>82</ele>
        <time>2015-02-05T14:28:31Z</time>
      </trkpt>
      <trkpt lat="48.62801" lon="2.51674">
        <ele>81</ele>
        <time>2015-02-05T14:28:39Z</time>
      </trkpt>
      <trkpt lat="48.62802" lon="2.51648">
        <ele>81</ele>
        <time>2015-02-05T14:28:59Z</time>
      </trkpt>
      <trkpt lat="48.62798" lon="2.51634">
        <ele>76</ele>
        <time>2015-02-05T14:29:20Z</time>
      </trkpt>
      <trkpt lat="48.62792" lon="2.51621">
        <ele>76</ele>
        <time>2015-02-05T14:29:28Z</time>
      </trkpt>
      <trkpt lat="48.6279" lon="2.51608">
        <ele>77</ele>
        <time>2015-02-05T14:29:35Z</time>
      </trkpt>
      <trkpt lat="48.62786" lon="2.51601">
        <ele>77</ele>
        <time>2015-02-05T14:29:39Z</time>
      </trkpt>
      <trkpt lat="48.6278" lon="2.51595">
        <ele>77</ele>
        <time>2015-02-05T14:29:44Z</time>
      </trkpt>
      <trkpt lat="48.62775" lon="2.51594">
        <ele>76</ele>
        <time>2015-02-05T14:29:47Z</time>
      </trkpt>
      <trkpt lat="48.62769" lon="2.51594">
        <ele>76</ele>
        <time>2015-02-05T14:29:50Z</time>
      </trkpt>
      <trkpt lat="48.62764" lon="2.51592">
        <ele>77</ele>
        <time>2015-02-05T14:29:53Z</time>
      </trkpt>
      <trkpt lat="48.62709" lon="2.51594">
        <ele>101</ele>
        <time>2015-02-05T14:30:32Z</time>
      </trkpt>
      <trkpt lat="48.627" lon="2.5159">
        <ele>102</ele>
        <time>2015-02-05T14:30:40Z</time>
      </trkpt>
      <trkpt lat="48.62664" lon="2.51575">
        <ele>88</ele>
        <time>2015-02-05T14:31:12Z</time>
      </trkpt>
      <trkpt lat="48.62659" lon="2.51579">
        <ele>81</ele>
        <time>2015-02-05T14:31:18Z</time>
      </trkpt>
      <trkpt lat="48.6265" lon="2.51574">
        <ele>78</ele>
        <time>2015-02-05T14:31:24Z</time>
      </trkpt>
      <trkpt lat="48.62632" lon="2.51555">
        <ele>82</ele>
        <time>2015-02-05T14:31:39Z</time>
      </trkpt>
      <trkpt lat="48.62627" lon="2.5155">
        <ele>82</ele>
        <time>2015-02-05T14:31:44Z</time>
      </trkpt>
      <trkpt lat="48.62622" lon="2.51545">
        <ele>80</ele>
        <time>2015-02-05T14:31:49Z</time>
      </trkpt>
      <trkpt lat="48.62622" lon="2.51538">
        <ele>80</ele>
        <time>2015-02-05T14:31:53Z</time>
      </trkpt>
      <trkpt lat="48.62618" lon="2.51535">
        <ele>78</ele>
        <time>2015-02-05T14:31:57Z</time>
      </trkpt>
      <trkpt lat="48.62613" lon="2.51534">
        <ele>78</ele>
        <time>2015-02-05T14:32:01Z</time>
      </trkpt>
      <trkpt lat="48.62607" lon="2.51538">
        <ele>78</ele>
        <time>2015-02-05T14:32:06Z</time>
      </trkpt>
      <trkpt lat="48.62585" lon="2.51529">
        <ele>82</ele>
        <time>2015-02-05T14:32:24Z</time>
      </trkpt>
      <trkpt lat="48.62574" lon="2.51527">
        <ele>83</ele>
        <time>2015-02-05T14:32:32Z</time>
      </trkpt>
      <trkpt lat="48.62569" lon="2.51523">
        <ele>82</ele>
        <time>2015-02-05T14:32:38Z</time>
      </trkpt>
      <trkpt lat="48.62553" lon="2.51515">
        <ele>83</ele>
        <time>2015-02-05T14:32:51Z</time>
      </trkpt>
      <trkpt lat="48.62548" lon="2.51512">
        <ele>82</ele>
        <time>2015-02-05T14:32:55Z</time>
      </trkpt>
      <trkpt lat="48.62528" lon="2.515">
        <ele>82</ele>
        <time>2015-02-05T14:33:12Z</time>
      </trkpt>
      <trkpt lat="48.62523" lon="2.51496">
        <ele>82</ele>
        <time>2015-02-05T14:33:16Z</time>
      </trkpt>
      <trkpt lat="48.62518" lon="2.51493">
        <ele>82</ele>
        <time>2015-02-05T14:33:20Z</time>
      </trkpt>
      <trkpt lat="48.62494" lon="2.51474">
        <ele>85</ele>
        <time>2015-02-05T14:33:39Z</time>
      </trkpt>
      <trkpt lat="48.62485" lon="2.51468">
        <ele>84</ele>
        <time>2015-02-05T14:33:46Z</time>
      </trkpt>
      <trkpt lat="48.6248" lon="2.51464">
        <ele>83</ele>
        <time>2015-02-05T14:33:50Z</time>
      </trkpt>
      <trkpt lat="48.62475" lon="2.5146">
        <ele>83</ele>
        <time>2015-02-05T14:33:54Z</time>
      </trkpt>
      <trkpt lat="48.62471" lon="2.51456">
        <ele>83</ele>
        <time>2015-02-05T14:33:58Z</time>
      </trkpt>
      <trkpt lat="48.62469" lon="2.5145">
        <ele>82</ele>
        <time>2015-02-05T14:34:08Z</time>
      </trkpt>
      <trkpt lat="48.62468" lon="2.51437">
        <ele>80</ele>
        <time>2015-02-05T14:34:30Z</time>
      </trkpt>
      <trkpt lat="48.62465" lon="2.51431">
        <ele>79</ele>
        <time>2015-02-05T14:34:34Z</time>
      </trkpt>
      <trkpt lat="48.62464" lon="2.51415">
        <ele>79</ele>
        <time>2015-02-05T14:34:42Z</time>
      </trkpt>
      <trkpt lat="48.62465" lon="2.51408">
        <ele>79</ele>
        <time>2015-02-05T14:34:47Z</time>
      </trkpt>
      <trkpt lat="48.62467" lon="2.514">
        <ele>79</ele>
        <time>2015-02-05T14:34:52Z</time>
      </trkpt>
      <trkpt lat="48.62468" lon="2.51393">
        <ele>79</ele>
        <time>2015-02-05T14:34:56Z</time>
      </trkpt>
      <trkpt lat="48.62469" lon="2.51384">
        <ele>79</ele>
        <time>2015-02-05T14:35:01Z</time>
      </trkpt>
      <trkpt lat="48.6247" lon="2.5136">
        <ele>80</ele>
        <time>2015-02-05T14:35:13Z</time>
      </trkpt>
      <trkpt lat="48.62473" lon="2.51344">
        <ele>80</ele>
        <time>2015-02-05T14:35:21Z</time>
      </trkpt>
      <trkpt lat="48.62475" lon="2.51337">
        <ele>80</ele>
        <time>2015-02-05T14:35:25Z</time>
      </trkpt>
      <trkpt lat="48.62477" lon="2.51329">
        <ele>80</ele>
        <time>2015-02-05T14:35:29Z</time>
      </trkpt>
      <trkpt lat="48.62478" lon="2.5132">
        <ele>78</ele>
        <time>2015-02-05T14:35:33Z</time>
      </trkpt>
      <trkpt lat="48.62478" lon="2.51312">
        <ele>78</ele>
        <time>2015-02-05T14:35:38Z</time>
      </trkpt>
      <trkpt lat="48.62479" lon="2.51298">
        <ele>78</ele>
        <time>2015-02-05T14:35:45Z</time>
      </trkpt>
      <trkpt lat="48.62481" lon="2.51291">
        <ele>78</ele>
        <time>2015-02-05T14:35:49Z</time>
      </trkpt>
      <trkpt lat="48.62483" lon="2.51283">
        <ele>78</ele>
        <time>2015-02-05T14:35:54Z</time>
      </trkpt>
      <trkpt lat="48.62484" lon="2.51275">
        <ele>78</ele>
        <time>2015-02-05T14:35:59Z</time>
      </trkpt>
      <trkpt lat="48.62484" lon="2.51268">
        <ele>78</ele>
        <time>2015-02-05T14:36:03Z</time>
      </trkpt>
      <trkpt lat="48.62484" lon="2.51258">
        <ele>78</ele>
        <time>2015-02-05T14:36:09Z</time>
      </trkpt>
      <trkpt lat="48.62483" lon="2.51244">
        <ele>79</ele>
        <time>2015-02-05T14:36:16Z</time>
      </trkpt>
      <trkpt lat="48.62485" lon="2.51228">
        <ele>79</ele>
        <time>2015-02-05T14:36:22Z</time>
      </trkpt>
      <trkpt lat="48.62485" lon="2.51221">
        <ele>79</ele>
        <time>2015-02-05T14:36:25Z</time>
      </trkpt>
      <trkpt lat="48.62486" lon="2.51214">
        <ele>79</ele>
        <time>2015-02-05T14:36:28Z</time>
      </trkpt>
      <trkpt lat="48.62489" lon="2.51198">
        <ele>79</ele>
        <time>2015-02-05T14:36:38Z</time>
      </trkpt>
      <trkpt lat="48.6249" lon="2.51174">
        <ele>82</ele>
        <time>2015-02-05T14:36:50Z</time>
      </trkpt>
      <trkpt lat="48.62491" lon="2.51167">
        <ele>83</ele>
        <time>2015-02-05T14:36:54Z</time>
      </trkpt>
      <trkpt lat="48.62493" lon="2.5116">
        <ele>82</ele>
        <time>2015-02-05T14:36:58Z</time>
      </trkpt>
      <trkpt lat="48.62494" lon="2.51153">
        <ele>82</ele>
        <time>2015-02-05T14:37:02Z</time>
      </trkpt>
      <trkpt lat="48.62494" lon="2.51146">
        <ele>82</ele>
        <time>2015-02-05T14:37:05Z</time>
      </trkpt>
      <trkpt lat="48.62502" lon="2.51115">
        <ele>86</ele>
        <time>2015-02-05T14:37:24Z</time>
      </trkpt>
      <trkpt lat="48.62509" lon="2.51051">
        <ele>76</ele>
        <time>2015-02-05T14:37:56Z</time>
      </trkpt>
      <trkpt lat="48.6251" lon="2.51034">
        <ele>76</ele>
        <time>2015-02-05T14:38:05Z</time>
      </trkpt>
      <trkpt lat="48.62512" lon="2.51017">
        <ele>78</ele>
        <time>2015-02-05T14:38:24Z</time>
      </trkpt>
      <trkpt lat="48.6251" lon="2.51018">
        <ele>75</ele>
        <time>2015-02-05T14:38:40Z</time>
      </trkpt>
      <trkpt lat="48.6251" lon="2.51007">
        <ele>74</ele>
        <time>2015-02-05T14:38:58Z</time>
      </trkpt>
      <trkpt lat="48.62512" lon="2.51">
        <ele>74</ele>
        <time>2015-02-05T14:39:02Z</time>
      </trkpt>
      <trkpt lat="48.62514" lon="2.50986">
        <ele>74</ele>
        <time>2015-02-05T14:39:13Z</time>
      </trkpt>
      <trkpt lat="48.62531" lon="2.50958">
        <ele>82</ele>
        <time>2015-02-05T14:39:32Z</time>
      </trkpt>
      <trkpt lat="48.6255" lon="2.50934">
        <ele>79</ele>
        <time>2015-02-05T14:39:51Z</time>
      </trkpt>
      <trkpt lat="48.62561" lon="2.50921">
        <ele>80</ele>
        <time>2015-02-05T14:40:05Z</time>
      </trkpt>
      <trkpt lat="48.62569" lon="2.50914">
        <ele>80</ele>
        <time>2015-02-05T14:40:12Z</time>
      </trkpt>
      <trkpt lat="48.6258" lon="2.50905">
        <ele>75</ele>
        <time>2015-02-05T14:40:24Z</time>
      </trkpt>
      <trkpt lat="48.62603" lon="2.50886">
        <ele>77</ele>
        <time>2015-02-05T14:40:45Z</time>
      </trkpt>
      <trkpt lat="48.62614" lon="2.50879">
        <ele>79</ele>
        <time>2015-02-05T14:40:53Z</time>
      </trkpt>
      <trkpt lat="48.62624" lon="2.50868">
        <ele>78</ele>
        <time>2015-02-05T14:41:03Z</time>
      </trkpt>
      <trkpt lat="48.6263" lon="2.50862">
        <ele>78</ele>
        <time>2015-02-05T14:41:09Z</time>
      </trkpt>
      <trkpt lat="48.62635" lon="2.50859">
        <ele>79</ele>
        <time>2015-02-05T14:41:13Z</time>
      </trkpt>
      <trkpt lat="48.62639" lon="2.50855">
        <ele>78</ele>
        <time>2015-02-05T14:41:17Z</time>
      </trkpt>
      <trkpt lat="48.62644" lon="2.50851">
        <ele>79</ele>
        <time>2015-02-05T14:41:21Z</time>
      </trkpt>
      <trkpt lat="48.62655" lon="2.50842">
        <ele>78</ele>
        <time>2015-02-05T14:41:32Z</time>
      </trkpt>
      <trkpt lat="48.62679" lon="2.50823">
        <ele>80</ele>
        <time>2015-02-05T14:41:53Z</time>
      </trkpt>
      <trkpt lat="48.62692" lon="2.50811">
        <ele>78</ele>
        <time>2015-02-05T14:42:05Z</time>
      </trkpt>
      <trkpt lat="48.62697" lon="2.50808">
        <ele>78</ele>
        <time>2015-02-05T14:42:09Z</time>
      </trkpt>
      <trkpt lat="48.62712" lon="2.50802">
        <ele>80</ele>
        <time>2015-02-05T14:42:22Z</time>
      </trkpt>
      <trkpt lat="48.62726" lon="2.50795">
        <ele>79</ele>
        <time>2015-02-05T14:42:35Z</time>
      </trkpt>
      <trkpt lat="48.62731" lon="2.50793">
        <ele>78</ele>
        <time>2015-02-05T14:42:40Z</time>
      </trkpt>
      <trkpt lat="48.62763" lon="2.50791">
        <ele>80</ele>
        <time>2015-02-05T14:43:03Z</time>
      </trkpt>
      <trkpt lat="48.62793" lon="2.50786">
        <ele>86</ele>
        <time>2015-02-05T14:43:26Z</time>
      </trkpt>
      <trkpt lat="48.62797" lon="2.50784">
        <ele>86</ele>
        <time>2015-02-05T14:43:29Z</time>
      </trkpt>
      <trkpt lat="48.62803" lon="2.50782">
        <ele>85</ele>
        <time>2015-02-05T14:43:34Z</time>
      </trkpt>
      <trkpt lat="48.6282" lon="2.50775">
        <ele>88</ele>
        <time>2015-02-05T14:43:49Z</time>
      </trkpt>
      <trkpt lat="48.6283" lon="2.5077">
        <ele>87</ele>
        <time>2015-02-05T14:43:57Z</time>
      </trkpt>
      <trkpt lat="48.6284" lon="2.50762">
        <ele>83</ele>
        <time>2015-02-05T14:44:07Z</time>
      </trkpt>
      <trkpt lat="48.62856" lon="2.50753">
        <ele>84</ele>
        <time>2015-02-05T14:44:22Z</time>
      </trkpt>
      <trkpt lat="48.62861" lon="2.50749">
        <ele>85</ele>
        <time>2015-02-05T14:44:25Z</time>
      </trkpt>
      <trkpt lat="48.62866" lon="2.50746">
        <ele>85</ele>
        <time>2015-02-05T14:44:29Z</time>
      </trkpt>
      <trkpt lat="48.62883" lon="2.50737">
        <ele>83</ele>
        <time>2015-02-05T14:44:48Z</time>
      </trkpt>
      <trkpt lat="48.62898" lon="2.50739">
        <ele>82</ele>
        <time>2015-02-05T14:45:04Z</time>
      </trkpt>
      <trkpt lat="48.62914" lon="2.50719">
        <ele>80</ele>
        <time>2015-02-05T14:45:20Z</time>
      </trkpt>
      <trkpt lat="48.62916" lon="2.50712">
        <ele>80</ele>
        <time>2015-02-05T14:45:24Z</time>
      </trkpt>
      <trkpt lat="48.62916" lon="2.50704">
        <ele>80</ele>
        <time>2015-02-05T14:45:30Z</time>
      </trkpt>
      <trkpt lat="48.62914" lon="2.50695">
        <ele>80</ele>
        <time>2015-02-05T14:45:36Z</time>
      </trkpt>
      <trkpt lat="48.62911" lon="2.50678">
        <ele>80</ele>
        <time>2015-02-05T14:45:46Z</time>
      </trkpt>
      <trkpt lat="48.62909" lon="2.50664">
        <ele>78</ele>
        <time>2015-02-05T14:46:00Z</time>
      </trkpt>
      <trkpt lat="48.62908" lon="2.50656">
        <ele>78</ele>
        <time>2015-02-05T14:46:04Z</time>
      </trkpt>
      <trkpt lat="48.62916" lon="2.50629">
        <ele>86</ele>
        <time>2015-02-05T14:46:27Z</time>
      </trkpt>
      <trkpt lat="48.6292" lon="2.50619">
        <ele>87</ele>
        <time>2015-02-05T14:46:29Z</time>
      </trkpt>
      <trkpt lat="48.62933" lon="2.50582">
        <ele>99</ele>
        <time>2015-02-05T14:46:56Z</time>
      </trkpt>
      <trkpt lat="48.62938" lon="2.50577">
        <ele>98</ele>
        <time>2015-02-05T14:47:01Z</time>
      </trkpt>
      <trkpt lat="48.62954" lon="2.50546">
        <ele>90</ele>
        <time>2015-02-05T14:47:31Z</time>
      </trkpt>
      <trkpt lat="48.62961" lon="2.50525">
        <ele>93</ele>
        <time>2015-02-05T14:47:44Z</time>
      </trkpt>
      <trkpt lat="48.62966" lon="2.50513">
        <ele>94</ele>
        <time>2015-02-05T14:47:52Z</time>
      </trkpt>
      <trkpt lat="48.62974" lon="2.50496">
        <ele>95</ele>
        <time>2015-02-05T14:48:05Z</time>
      </trkpt>
      <trkpt lat="48.62984" lon="2.5047">
        <ele>91</ele>
        <time>2015-02-05T14:48:24Z</time>
      </trkpt>
      <trkpt lat="48.62985" lon="2.50464">
        <ele>91</ele>
        <time>2015-02-05T14:48:28Z</time>
      </trkpt>
      <trkpt lat="48.62989" lon="2.50458">
        <ele>92</ele>
        <time>2015-02-05T14:48:31Z</time>
      </trkpt>
      <trkpt lat="48.62996" lon="2.50447">
        <ele>90</ele>
        <time>2015-02-05T14:48:42Z</time>
      </trkpt>
      <trkpt lat="48.63002" lon="2.50426">
        <ele>84</ele>
        <time>2015-02-05T14:48:59Z</time>
      </trkpt>
      <trkpt lat="48.63004" lon="2.50419">
        <ele>85</ele>
        <time>2015-02-05T14:49:04Z</time>
      </trkpt>
      <trkpt lat="48.63008" lon="2.50403">
        <ele>84</ele>
        <time>2015-02-05T14:49:15Z</time>
      </trkpt>
      <trkpt lat="48.63008" lon="2.5039">
        <ele>81</ele>
        <time>2015-02-05T14:49:22Z</time>
      </trkpt>
      <trkpt lat="48.63012" lon="2.50388">
        <ele>78</ele>
        <time>2015-02-05T14:49:28Z</time>
      </trkpt>
      <trkpt lat="48.63019" lon="2.50379">
        <ele>68</ele>
        <time>2015-02-05T14:49:46Z</time>
      </trkpt>
      <trkpt lat="48.63026" lon="2.50298">
        <ele>89</ele>
        <time>2015-02-05T14:50:22Z</time>
      </trkpt>
      <trkpt lat="48.63027" lon="2.50283">
        <ele>88</ele>
        <time>2015-02-05T14:50:38Z</time>
      </trkpt>
      <trkpt lat="48.63031" lon="2.50255">
        <ele>92</ele>
        <time>2015-02-05T14:50:49Z</time>
      </trkpt>
      <trkpt lat="48.63032" lon="2.50248">
        <ele>92</ele>
        <time>2015-02-05T14:50:55Z</time>
      </trkpt>
      <trkpt lat="48.63033" lon="2.50223">
        <ele>88</ele>
        <time>2015-02-05T14:51:10Z</time>
      </trkpt>
      <trkpt lat="48.63032" lon="2.50216">
        <ele>87</ele>
        <time>2015-02-05T14:51:14Z</time>
      </trkpt>
      <trkpt lat="48.63033" lon="2.50208">
        <ele>86</ele>
        <time>2015-02-05T14:51:20Z</time>
      </trkpt>
      <trkpt lat="48.63031" lon="2.50181">
        <ele>91</ele>
        <time>2015-02-05T14:51:32Z</time>
      </trkpt>
      <trkpt lat="48.63031" lon="2.50172">
        <ele>91</ele>
        <time>2015-02-05T14:51:38Z</time>
      </trkpt>
      <trkpt lat="48.63029" lon="2.5016">
        <ele>89</ele>
        <time>2015-02-05T14:51:46Z</time>
      </trkpt>
      <trkpt lat="48.63026" lon="2.50092">
        <ele>96</ele>
        <time>2015-02-05T14:52:19Z</time>
      </trkpt>
      <trkpt lat="48.63026" lon="2.5007">
        <ele>95</ele>
        <time>2015-02-05T14:52:36Z</time>
      </trkpt>
      <trkpt lat="48.63027" lon="2.50057">
        <ele>91</ele>
        <time>2015-02-05T14:52:44Z</time>
      </trkpt>
      <trkpt lat="48.63023" lon="2.50022">
        <ele>87</ele>
        <time>2015-02-05T14:53:04Z</time>
      </trkpt>
      <trkpt lat="48.63022" lon="2.50016">
        <ele>89</ele>
        <time>2015-02-05T14:53:07Z</time>
      </trkpt>
      <trkpt lat="48.63021" lon="2.50009">
        <ele>89</ele>
        <time>2015-02-05T14:53:11Z</time>
      </trkpt>
      <trkpt lat="48.63011" lon="2.49982">
        <ele>90</ele>
        <time>2015-02-05T14:53:26Z</time>
      </trkpt>
      <trkpt lat="48.6301" lon="2.49967">
        <ele>87</ele>
        <time>2015-02-05T14:53:41Z</time>
      </trkpt>
      <trkpt lat="48.63009" lon="2.4996">
        <ele>87</ele>
        <time>2015-02-05T14:53:45Z</time>
      </trkpt>
      <trkpt lat="48.63005" lon="2.49945">
        <ele>88</ele>
        <time>2015-02-05T14:53:53Z</time>
      </trkpt>
      <trkpt lat="48.63002" lon="2.49939">
        <ele>88</ele>
        <time>2015-02-05T14:53:57Z</time>
      </trkpt>
      <trkpt lat="48.6298" lon="2.49901">
        <ele>81</ele>
        <time>2015-02-05T14:54:23Z</time>
      </trkpt>
      <trkpt lat="48.62977" lon="2.49895">
        <ele>80</ele>
        <time>2015-02-05T14:54:28Z</time>
      </trkpt>
      <trkpt lat="48.62971" lon="2.49881">
        <ele>79</ele>
        <time>2015-02-05T14:54:37Z</time>
      </trkpt>
      <trkpt lat="48.62965" lon="2.49868">
        <ele>80</ele>
        <time>2015-02-05T14:54:44Z</time>
      </trkpt>
      <trkpt lat="48.62961" lon="2.49863">
        <ele>80</ele>
        <time>2015-02-05T14:54:48Z</time>
      </trkpt>
      <trkpt lat="48.62958" lon="2.49856">
        <ele>80</ele>
        <time>2015-02-05T14:54:52Z</time>
      </trkpt>
      <trkpt lat="48.62955" lon="2.4985">
        <ele>80</ele>
        <time>2015-02-05T14:54:56Z</time>
      </trkpt>
      <trkpt lat="48.62952" lon="2.49842">
        <ele>79</ele>
        <time>2015-02-05T14:55:02Z</time>
      </trkpt>
      <trkpt lat="48.62949" lon="2.49835">
        <ele>79</ele>
        <time>2015-02-05T14:55:07Z</time>
      </trkpt>
      <trkpt lat="48.6294" lon="2.49815">
        <ele>82</ele>
        <time>2015-02-05T14:55:19Z</time>
      </trkpt>
      <trkpt lat="48.62937" lon="2.49802">
        <ele>81</ele>
        <time>2015-02-05T14:55:33Z</time>
      </trkpt>
      <trkpt lat="48.6294" lon="2.49792">
        <ele>79</ele>
        <time>2015-02-05T14:55:44Z</time>
      </trkpt>
      <trkpt lat="48.62949" lon="2.49789">
        <ele>80</ele>
        <time>2015-02-05T14:56:48Z</time>
      </trkpt>
      <trkpt lat="48.62972" lon="2.49769">
        <ele>73</ele>
        <time>2015-02-05T14:57:20Z</time>
      </trkpt>
      <trkpt lat="48.62988" lon="2.49761">
        <ele>73</ele>
        <time>2015-02-05T14:57:36Z</time>
      </trkpt>
      <trkpt lat="48.63006" lon="2.4975">
        <ele>79</ele>
        <time>2015-02-05T14:57:53Z</time>
      </trkpt>
      <trkpt lat="48.63015" lon="2.49742">
        <ele>80</ele>
        <time>2015-02-05T14:58:01Z</time>
      </trkpt>
      <trkpt lat="48.63019" lon="2.49739">
        <ele>79</ele>
        <time>2015-02-05T14:58:06Z</time>
      </trkpt>
      <trkpt lat="48.63025" lon="2.4973">
        <ele>79</ele>
        <time>2015-02-05T14:58:14Z</time>
      </trkpt>
      <trkpt lat="48.63026" lon="2.49723">
        <ele>80</ele>
        <time>2015-02-05T14:58:19Z</time>
      </trkpt>
      <trkpt lat="48.63035" lon="2.49707">
        <ele>81</ele>
        <time>2015-02-05T14:58:32Z</time>
      </trkpt>
      <trkpt lat="48.63041" lon="2.49707">
        <ele>81</ele>
        <time>2015-02-05T14:58:37Z</time>
      </trkpt>
      <trkpt lat="48.63045" lon="2.49712">
        <ele>82</ele>
        <time>2015-02-05T14:58:42Z</time>
      </trkpt>
      <trkpt lat="48.63049" lon="2.49717">
        <ele>81</ele>
        <time>2015-02-05T14:58:47Z</time>
      </trkpt>
      <trkpt lat="48.63055" lon="2.49719">
        <ele>81</ele>
        <time>2015-02-05T14:58:53Z</time>
      </trkpt>
      <trkpt lat="48.63063" lon="2.49712">
        <ele>82</ele>
        <time>2015-02-05T14:59:17Z</time>
      </trkpt>
      <trkpt lat="48.6307" lon="2.49712">
        <ele>82</ele>
        <time>2015-02-05T14:59:22Z</time>
      </trkpt>
      <trkpt lat="48.6311" lon="2.49718">
        <ele>91</ele>
        <time>2015-02-05T14:59:53Z</time>
      </trkpt>
      <trkpt lat="48.63113" lon="2.49723">
        <ele>90</ele>
        <time>2015-02-05T14:59:57Z</time>
      </trkpt>
      <trkpt lat="48.6312" lon="2.49753">
        <ele>87</ele>
        <time>2015-02-05T15:00:15Z</time>
      </trkpt>
      <trkpt lat="48.63124" lon="2.49759">
        <ele>87</ele>
        <time>2015-02-05T15:00:19Z</time>
      </trkpt>
      <trkpt lat="48.63132" lon="2.49769">
        <ele>88</ele>
        <time>2015-02-05T15:00:28Z</time>
      </trkpt>
      <trkpt lat="48.63137" lon="2.49771">
        <ele>88</ele>
        <time>2015-02-05T15:00:40Z</time>
      </trkpt>
      <trkpt lat="48.63142" lon="2.49772">
        <ele>88</ele>
        <time>2015-02-05T15:00:47Z</time>
      </trkpt>
      <trkpt lat="48.63146" lon="2.49775">
        <ele>88</ele>
        <time>2015-02-05T15:00:51Z</time>
      </trkpt>
      <trkpt lat="48.63151" lon="2.49777">
        <ele>88</ele>
        <time>2015-02-05T15:00:55Z</time>
      </trkpt>
      <trkpt lat="48.63156" lon="2.4978">
        <ele>87</ele>
        <time>2015-02-05T15:00:59Z</time>
      </trkpt>
      <trkpt lat="48.63161" lon="2.49781">
        <ele>88</ele>
        <time>2015-02-05T15:01:02Z</time>
      </trkpt>
      <trkpt lat="48.63181" lon="2.49784">
        <ele>86</ele>
        <time>2015-02-05T15:01:15Z</time>
      </trkpt>
      <trkpt lat="48.63197" lon="2.49782">
        <ele>88</ele>
        <time>2015-02-05T15:01:27Z</time>
      </trkpt>
      <trkpt lat="48.63204" lon="2.49778">
        <ele>88</ele>
        <time>2015-02-05T15:01:33Z</time>
      </trkpt>
      <trkpt lat="48.63209" lon="2.49775">
        <ele>89</ele>
        <time>2015-02-05T15:01:38Z</time>
      </trkpt>
      <trkpt lat="48.63214" lon="2.49774">
        <ele>89</ele>
        <time>2015-02-05T15:01:42Z</time>
      </trkpt>
      <trkpt lat="48.63218" lon="2.49771">
        <ele>88</ele>
        <time>2015-02-05T15:01:57Z</time>
      </trkpt>
      <trkpt lat="48.63223" lon="2.49766">
        <ele>88</ele>
        <time>2015-02-05T15:02:03Z</time>
      </trkpt>
      <trkpt lat="48.63241" lon="2.49745">
        <ele>93</ele>
        <time>2015-02-05T15:02:21Z</time>
      </trkpt>
      <trkpt lat="48.63251" lon="2.49726">
        <ele>92</ele>
        <time>2015-02-05T15:02:35Z</time>
      </trkpt>
      <trkpt lat="48.63259" lon="2.49718">
        <ele>89</ele>
        <time>2015-02-05T15:02:44Z</time>
      </trkpt>
      <trkpt lat="48.63268" lon="2.49715">
        <ele>87</ele>
        <time>2015-02-05T15:02:52Z</time>
      </trkpt>
      <trkpt lat="48.63286" lon="2.49723">
        <ele>85</ele>
        <time>2015-02-05T15:03:08Z</time>
      </trkpt>
      <trkpt lat="48.63295" lon="2.49728">
        <ele>85</ele>
        <time>2015-02-05T15:03:18Z</time>
      </trkpt>
      <trkpt lat="48.63307" lon="2.4974">
        <ele>83</ele>
        <time>2015-02-05T15:03:27Z</time>
      </trkpt>
      <trkpt lat="48.63315" lon="2.49749">
        <ele>84</ele>
        <time>2015-02-05T15:03:35Z</time>
      </trkpt>
      <trkpt lat="48.6332" lon="2.4976">
        <ele>84</ele>
        <time>2015-02-05T15:03:41Z</time>
      </trkpt>
      <trkpt lat="48.63325" lon="2.49772">
        <ele>83</ele>
        <time>2015-02-05T15:03:51Z</time>
      </trkpt>
      <trkpt lat="48.63327" lon="2.49779">
        <ele>84</ele>
        <time>2015-02-05T15:03:55Z</time>
      </trkpt>
      <trkpt lat="48.63332" lon="2.49796">
        <ele>82</ele>
        <time>2015-02-05T15:04:06Z</time>
      </trkpt>
      <trkpt lat="48.63337" lon="2.49841">
        <ele>81</ele>
        <time>2015-02-05T15:04:28Z</time>
      </trkpt>
      <trkpt lat="48.63338" lon="2.49851">
        <ele>82</ele>
        <time>2015-02-05T15:04:34Z</time>
      </trkpt>
      <trkpt lat="48.63338" lon="2.49869">
        <ele>79</ele>
        <time>2015-02-05T15:04:44Z</time>
      </trkpt>
      <trkpt lat="48.63339" lon="2.49884">
        <ele>79</ele>
        <time>2015-02-05T15:04:50Z</time>
      </trkpt>
      <trkpt lat="48.63345" lon="2.49922">
        <ele>76</ele>
        <time>2015-02-05T15:05:12Z</time>
      </trkpt>
      <trkpt lat="48.63344" lon="2.49954">
        <ele>80</ele>
        <time>2015-02-05T15:05:26Z</time>
      </trkpt>
      <trkpt lat="48.63342" lon="2.49963">
        <ele>79</ele>
        <time>2015-02-05T15:05:31Z</time>
      </trkpt>
      <trkpt lat="48.63343" lon="2.49976">
        <ele>80</ele>
        <time>2015-02-05T15:05:39Z</time>
      </trkpt>
      <trkpt lat="48.63346" lon="2.49985">
        <ele>81</ele>
        <time>2015-02-05T15:05:44Z</time>
      </trkpt>
      <trkpt lat="48.63349" lon="2.4999">
        <ele>81</ele>
        <time>2015-02-05T15:05:47Z</time>
      </trkpt>
      <trkpt lat="48.63364" lon="2.50009">
        <ele>75</ele>
        <time>2015-02-05T15:06:06Z</time>
      </trkpt>
      <trkpt lat="48.63373" lon="2.50016">
        <ele>75</ele>
        <time>2015-02-05T15:06:13Z</time>
      </trkpt>
      <trkpt lat="48.63382" lon="2.50023">
        <ele>77</ele>
        <time>2015-02-05T15:06:19Z</time>
      </trkpt>
      <trkpt lat="48.63398" lon="2.50037">
        <ele>74</ele>
        <time>2015-02-05T15:06:35Z</time>
      </trkpt>
      <trkpt lat="48.63416" lon="2.5005">
        <ele>75</ele>
        <time>2015-02-05T15:06:49Z</time>
      </trkpt>
      <trkpt lat="48.63424" lon="2.50056">
        <ele>72</ele>
        <time>2015-02-05T15:06:58Z</time>
      </trkpt>
      <trkpt lat="48.63433" lon="2.50063">
        <ele>72</ele>
        <time>2015-02-05T15:07:05Z</time>
      </trkpt>
      <trkpt lat="48.63442" lon="2.5007">
        <ele>74</ele>
        <time>2015-02-05T15:07:13Z</time>
      </trkpt>
      <trkpt lat="48.63451" lon="2.50077">
        <ele>75</ele>
        <time>2015-02-05T15:07:21Z</time>
      </trkpt>
      <trkpt lat="48.63459" lon="2.50084">
        <ele>73</ele>
        <time>2015-02-05T15:07:29Z</time>
      </trkpt>
      <trkpt lat="48.63476" lon="2.50098">
        <ele>73</ele>
        <time>2015-02-05T15:07:44Z</time>
      </trkpt>
      <trkpt lat="48.63494" lon="2.50112">
        <ele>75</ele>
        <time>2015-02-05T15:08:00Z</time>
      </trkpt>
      <trkpt lat="48.63502" lon="2.50119">
        <ele>74</ele>
        <time>2015-02-05T15:08:06Z</time>
      </trkpt>
      <trkpt lat="48.6351" lon="2.50127">
        <ele>74</ele>
        <time>2015-02-05T15:08:13Z</time>
      </trkpt>
      <trkpt lat="48.63527" lon="2.50138">
        <ele>80</ele>
        <time>2015-02-05T15:08:23Z</time>
      </trkpt>
      <trkpt lat="48.63535" lon="2.50145">
        <ele>81</ele>
        <time>2015-02-05T15:08:30Z</time>
      </trkpt>
      <trkpt lat="48.63545" lon="2.50163">
        <ele>79</ele>
        <time>2015-02-05T15:08:45Z</time>
      </trkpt>
      <trkpt lat="48.63564" lon="2.50197">
        <ele>71</ele>
        <time>2015-02-05T15:09:11Z</time>
      </trkpt>
      <trkpt lat="48.63579" lon="2.50214">
        <ele>73</ele>
        <time>2015-02-05T15:09:20Z</time>
      </trkpt>
      <trkpt lat="48.63605" lon="2.50241">
        <ele>81</ele>
        <time>2015-02-05T15:09:43Z</time>
      </trkpt>
      <trkpt lat="48.63611" lon="2.50252">
        <ele>81</ele>
        <time>2015-02-05T15:09:51Z</time>
      </trkpt>
      <trkpt lat="48.63616" lon="2.50263">
        <ele>77</ele>
        <time>2015-02-05T15:10:00Z</time>
      </trkpt>
      <trkpt lat="48.63624" lon="2.50272">
        <ele>78</ele>
        <time>2015-02-05T15:10:07Z</time>
      </trkpt>
      <trkpt lat="48.63627" lon="2.50279">
        <ele>78</ele>
        <time>2015-02-05T15:10:12Z</time>
      </trkpt>
      <trkpt lat="48.63644" lon="2.50303">
        <ele>73</ele>
        <time>2015-02-05T15:10:33Z</time>
      </trkpt>
      <trkpt lat="48.63651" lon="2.50315">
        <ele>73</ele>
        <time>2015-02-05T15:10:41Z</time>
      </trkpt>
      <trkpt lat="48.63657" lon="2.5032">
        <ele>75</ele>
        <time>2015-02-05T15:10:47Z</time>
      </trkpt>
      <trkpt lat="48.63669" lon="2.5034">
        <ele>76</ele>
        <time>2015-02-05T15:11:00Z</time>
      </trkpt>
      <trkpt lat="48.63673" lon="2.50344">
        <ele>77</ele>
        <time>2015-02-05T15:11:03Z</time>
      </trkpt>
      <trkpt lat="48.63674" lon="2.50351">
        <ele>78</ele>
        <time>2015-02-05T15:11:06Z</time>
      </trkpt>
      <trkpt lat="48.63675" lon="2.50358">
        <ele>78</ele>
        <time>2015-02-05T15:11:09Z</time>
      </trkpt>
      <trkpt lat="48.6368" lon="2.50372">
        <ele>78</ele>
        <time>2015-02-05T15:11:19Z</time>
      </trkpt>
      <trkpt lat="48.63686" lon="2.50376">
        <ele>79</ele>
        <time>2015-02-05T15:11:36Z</time>
      </trkpt>
      <trkpt lat="48.63692" lon="2.50379">
        <ele>79</ele>
        <time>2015-02-05T15:11:39Z</time>
      </trkpt>
      <trkpt lat="48.63701" lon="2.50381">
        <ele>77</ele>
        <time>2015-02-05T15:11:52Z</time>
      </trkpt>
      <trkpt lat="48.63704" lon="2.50386">
        <ele>77</ele>
        <time>2015-02-05T15:11:55Z</time>
      </trkpt>
      <trkpt lat="48.63708" lon="2.50392">
        <ele>77</ele>
        <time>2015-02-05T15:11:58Z</time>
      </trkpt>
      <trkpt lat="48.63711" lon="2.50406">
        <ele>78</ele>
        <time>2015-02-05T15:12:06Z</time>
      </trkpt>
      <trkpt lat="48.63719" lon="2.50433">
        <ele>75</ele>
        <time>2015-02-05T15:12:22Z</time>
      </trkpt>
      <trkpt lat="48.63723" lon="2.50445">
        <ele>75</ele>
        <time>2015-02-05T15:12:29Z</time>
      </trkpt>
      <trkpt lat="48.63729" lon="2.50458">
        <ele>76</ele>
        <time>2015-02-05T15:12:37Z</time>
      </trkpt>
      <trkpt lat="48.63737" lon="2.50467">
        <ele>76</ele>
        <time>2015-02-05T15:12:45Z</time>
      </trkpt>
      <trkpt lat="48.63744" lon="2.50477">
        <ele>76</ele>
        <time>2015-02-05T15:12:52Z</time>
      </trkpt>
      <trkpt lat="48.6375" lon="2.50489">
        <ele>77</ele>
        <time>2015-02-05T15:12:59Z</time>
      </trkpt>
      <trkpt lat="48.63757" lon="2.505">
        <ele>77</ele>
        <time>2015-02-05T15:13:08Z</time>
      </trkpt>
      <trkpt lat="48.63765" lon="2.5051">
        <ele>78</ele>
        <time>2015-02-05T15:13:17Z</time>
      </trkpt>
      <trkpt lat="48.63775" lon="2.50513">
        <ele>76</ele>
        <time>2015-02-05T15:13:24Z</time>
      </trkpt>
      <trkpt lat="48.63794" lon="2.50516">
        <ele>75</ele>
        <time>2015-02-05T15:13:42Z</time>
      </trkpt>
      <trkpt lat="48.63804" lon="2.5052">
        <ele>76</ele>
        <time>2015-02-05T15:13:48Z</time>
      </trkpt>
      <trkpt lat="48.63813" lon="2.50523">
        <ele>79</ele>
        <time>2015-02-05T15:13:55Z</time>
      </trkpt>
      <trkpt lat="48.63833" lon="2.50528">
        <ele>80</ele>
        <time>2015-02-05T15:14:08Z</time>
      </trkpt>
      <trkpt lat="48.63842" lon="2.50533">
        <ele>78</ele>
        <time>2015-02-05T15:14:17Z</time>
      </trkpt>
      <trkpt lat="48.63851" lon="2.50539">
        <ele>78</ele>
        <time>2015-02-05T15:14:25Z</time>
      </trkpt>
      <trkpt lat="48.63859" lon="2.50545">
        <ele>78</ele>
        <time>2015-02-05T15:14:31Z</time>
      </trkpt>
      <trkpt lat="48.63867" lon="2.50551">
        <ele>78</ele>
        <time>2015-02-05T15:14:38Z</time>
      </trkpt>
      <trkpt lat="48.63875" lon="2.5056">
        <ele>78</ele>
        <time>2015-02-05T15:14:46Z</time>
      </trkpt>
      <trkpt lat="48.63898" lon="2.50584">
        <ele>82</ele>
        <time>2015-02-05T15:15:12Z</time>
      </trkpt>
      <trkpt lat="48.63909" lon="2.50603">
        <ele>77</ele>
        <time>2015-02-05T15:15:27Z</time>
      </trkpt>
      <trkpt lat="48.63921" lon="2.50604">
        <ele>81</ele>
        <time>2015-02-05T15:15:50Z</time>
      </trkpt>
      <trkpt lat="48.63923" lon="2.50595">
        <ele>82</ele>
        <time>2015-02-05T15:15:57Z</time>
      </trkpt>
      <trkpt lat="48.63927" lon="2.50591">
        <ele>84</ele>
        <time>2015-02-05T15:16:03Z</time>
      </trkpt>
      <trkpt lat="48.63933" lon="2.50578">
        <ele>84</ele>
        <time>2015-02-05T15:16:13Z</time>
      </trkpt>
      <trkpt lat="48.63957" lon="2.50555">
        <ele>78</ele>
        <time>2015-02-05T15:16:34Z</time>
      </trkpt>
      <trkpt lat="48.63965" lon="2.50547">
        <ele>78</ele>
        <time>2015-02-05T15:16:42Z</time>
      </trkpt>
      <trkpt lat="48.63977" lon="2.50529">
        <ele>75</ele>
        <time>2015-02-05T15:16:57Z</time>
      </trkpt>
      <trkpt lat="48.63985" lon="2.50522">
        <ele>76</ele>
        <time>2015-02-05T15:17:05Z</time>
      </trkpt>
      <trkpt lat="48.64005" lon="2.50495">
        <ele>79</ele>
        <time>2015-02-05T15:17:28Z</time>
      </trkpt>
      <trkpt lat="48.64022" lon="2.50472">
        <ele>80</ele>
        <time>2015-02-05T15:17:44Z</time>
      </trkpt>
      <trkpt lat="48.6403" lon="2.50462">
        <ele>76</ele>
        <time>2015-02-05T15:17:54Z</time>
      </trkpt>
      <trkpt lat="48.64038" lon="2.50454">
        <ele>77</ele>
        <time>2015-02-05T15:18:01Z</time>
      </trkpt>
      <trkpt lat="48.64049" lon="2.50442">
        <ele>76</ele>
        <time>2015-02-05T15:18:12Z</time>
      </trkpt>
      <trkpt lat="48.64052" lon="2.50437">
        <ele>75</ele>
        <time>2015-02-05T15:18:16Z</time>
      </trkpt>
      <trkpt lat="48.64056" lon="2.50433">
        <ele>76</ele>
        <time>2015-02-05T15:18:21Z</time>
      </trkpt>
      <trkpt lat="48.64062" lon="2.50424">
        <ele>76</ele>
        <time>2015-02-05T15:18:28Z</time>
      </trkpt>
      <trkpt lat="48.64065" lon="2.50417">
        <ele>77</ele>
        <time>2015-02-05T15:18:32Z</time>
      </trkpt>
    </trkseg>
  </trk>
</gpx>